TAP297 LPPT-FNBJ
Flight info
| Callsign | TAP297 |
|---|---|
| Flight time | 7h 15m |
| Altitude | 37000 |
| Route | DUZOP DCT OBOLO DCT AMSEL UR722 MAK UM372 BULIS UR866 ONIMI/N0466F390 UR866 OG UR983 GAPAK UA400 VNA DCT VBJ |
| Aircraft | A339/H-SADE1E2E3GHIJ1J3J5M1P2RWXYZ/LB1D1 |
Departure
| Time | 2026-04-28 23:46 |
|---|---|
| Airport | Lisbon Humberto Delgado Airport (LPPT) |
Arrival
| Time | 2026-04-29 07:01 |
|---|---|
| Airport | Dr. Antonio Agostinho Neto International Airport (FNBJ) |
| Time | Latitude | Longitude | Altitude | Speed | Heading |
|---|---|---|---|---|---|
| 2026-04-28 23:32 | 38.77488 | -9.13162 | 391 ft | 0 kts | 77° |
| 2026-04-28 23:35 | 38.77487 | -9.13166 | 391 ft | 2 kts | 76° |
| 2026-04-28 23:35 | 38.77483 | -9.13185 | 391 ft | 2 kts | 76° |
| 2026-04-28 23:36 | 38.77480 | -9.13204 | 391 ft | 2 kts | 78° |
| 2026-04-28 23:36 | 38.77477 | -9.13222 | 391 ft | 2 kts | 77° |
| 2026-04-28 23:36 | 38.77473 | -9.13241 | 391 ft | 2 kts | 77° |
| 2026-04-28 23:36 | 38.77472 | -9.13260 | 391 ft | 2 kts | 101° |
| 2026-04-28 23:37 | 38.77477 | -9.13278 | 391 ft | 2 kts | 128° |
| 2026-04-28 23:37 | 38.77488 | -9.13291 | 391 ft | 2 kts | 153° |
| 2026-04-28 23:37 | 38.77497 | -9.13296 | 391 ft | 0 kts | 169° |
| 2026-04-28 23:37 | 38.77501 | -9.13297 | 391 ft | 0 kts | 170° |
| 2026-04-28 23:39 | 38.77499 | -9.13296 | 391 ft | 1 kts | 170° |
| 2026-04-28 23:40 | 38.77455 | -9.13285 | 391 ft | 10 kts | 169° |
| 2026-04-28 23:40 | 38.77378 | -9.13266 | 391 ft | 12 kts | 169° |
| 2026-04-28 23:40 | 38.77287 | -9.13244 | 391 ft | 14 kts | 170° |
| 2026-04-28 23:40 | 38.77188 | -9.13221 | 391 ft | 14 kts | 168° |
| 2026-04-28 23:41 | 38.77085 | -9.13193 | 391 ft | 15 kts | 167° |
| 2026-04-28 23:41 | 38.76973 | -9.13160 | 391 ft | 16 kts | 168° |
| 2026-04-28 23:41 | 38.76859 | -9.13130 | 391 ft | 16 kts | 169° |
| 2026-04-28 23:41 | 38.76790 | -9.13148 | 391 ft | 8 kts | 254° |
| 2026-04-28 23:42 | 38.76777 | -9.13233 | 391 ft | 11 kts | 253° |
| 2026-04-28 23:42 | 38.76749 | -9.13349 | 391 ft | 14 kts | 253° |
| 2026-04-28 23:42 | 38.76687 | -9.13439 | 391 ft | 13 kts | 220° |
| 2026-04-28 23:42 | 38.76644 | -9.13547 | 391 ft | 14 kts | 257° |
| 2026-04-28 23:43 | 38.76625 | -9.13677 | 391 ft | 15 kts | 259° |
| 2026-04-28 23:43 | 38.76605 | -9.13812 | 391 ft | 15 kts | 257° |
| 2026-04-28 23:43 | 38.76581 | -9.13948 | 391 ft | 15 kts | 257° |
| 2026-04-28 23:43 | 38.76559 | -9.14088 | 391 ft | 15 kts | 265° |
| 2026-04-28 23:44 | 38.76586 | -9.14217 | 391 ft | 15 kts | 292° |
| 2026-04-28 23:44 | 38.76627 | -9.14342 | 391 ft | 14 kts | 294° |
| 2026-04-28 23:44 | 38.76667 | -9.14372 | 391 ft | 0 kts | 23° |
| 2026-04-28 23:44 | 38.76674 | -9.14368 | 391 ft | 2 kts | 22° |
| 2026-04-28 23:45 | 38.76762 | -9.14326 | 391 ft | 38 kts | 21° |
| 2026-04-28 23:45 | 38.77212 | -9.14086 | 391 ft | 98 kts | 23° |
| 2026-04-28 23:45 | 38.78022 | -9.13652 | 391 ft | 148 kts | 22° |
| 2026-04-28 23:45 | 38.79111 | -9.13050 | 559 ft | 175 kts | 22° |
| 2026-04-28 23:46 | 38.80218 | -9.12358 | 1137 ft | 173 kts | 27° |
| 2026-04-28 23:46 | 38.81272 | -9.11551 | 1657 ft | 179 kts | 31° |
| 2026-04-28 23:46 | 38.82355 | -9.10661 | 2196 ft | 183 kts | 31° |
| 2026-04-28 23:46 | 38.83481 | -9.09784 | 2613 ft | 193 kts | 27° |
| 2026-04-28 23:47 | 38.84753 | -9.08913 | 2937 ft | 209 kts | 26° |
| 2026-04-28 23:47 | 38.86139 | -9.07996 | 3256 ft | 227 kts | 26° |
| 2026-04-28 23:47 | 38.87605 | -9.07024 | 3585 ft | 244 kts | 27° |
| 2026-04-28 23:47 | 38.89012 | -9.05679 | 3893 ft | 264 kts | 54° |
| 2026-04-28 23:48 | 38.89686 | -9.03468 | 4396 ft | 274 kts | 85° |
| 2026-04-28 23:48 | 38.89687 | -9.01005 | 5113 ft | 276 kts | 92° |
| 2026-04-28 23:48 | 38.89614 | -8.98521 | 5792 ft | 279 kts | 98° |
| 2026-04-28 23:48 | 38.88917 | -8.96240 | 6382 ft | 280 kts | 131° |
| 2026-04-28 23:49 | 38.87448 | -8.94683 | 6989 ft | 279 kts | 156° |
| 2026-04-28 23:49 | 38.85572 | -8.94099 | 7578 ft | 279 kts | 178° |
| 2026-04-28 23:49 | 38.83593 | -8.93955 | 8180 ft | 282 kts | 178° |
| 2026-04-28 23:49 | 38.81632 | -8.93813 | 8781 ft | 285 kts | 177° |
| 2026-04-28 23:50 | 38.79617 | -8.93663 | 9420 ft | 288 kts | 177° |
| 2026-04-28 23:50 | 38.77594 | -8.93508 | 10064 ft | 291 kts | 176° |
| 2026-04-28 23:50 | 38.75555 | -8.93348 | 10506 ft | 300 kts | 176° |
| 2026-04-28 23:50 | 38.73393 | -8.93174 | 10768 ft | 316 kts | 177° |
| 2026-04-28 23:51 | 38.71176 | -8.92995 | 11023 ft | 331 kts | 177° |
| 2026-04-28 23:51 | 38.68850 | -8.92807 | 11480 ft | 338 kts | 178° |
| 2026-04-28 23:51 | 38.66506 | -8.92618 | 12103 ft | 339 kts | 178° |
| 2026-04-28 23:51 | 38.64119 | -8.92429 | 12709 ft | 341 kts | 178° |
| 2026-04-28 23:52 | 38.61750 | -8.92242 | 13293 ft | 343 kts | 178° |
| 2026-04-28 23:52 | 38.59380 | -8.92056 | 13934 ft | 346 kts | 178° |
| 2026-04-28 23:52 | 38.56974 | -8.91864 | 14640 ft | 347 kts | 178° |
| 2026-04-28 23:52 | 38.54555 | -8.91672 | 15299 ft | 347 kts | 178° |
| 2026-04-28 23:53 | 38.52142 | -8.91476 | 15886 ft | 350 kts | 178° |
| 2026-04-28 23:53 | 38.49696 | -8.91278 | 16502 ft | 352 kts | 178° |
| 2026-04-28 23:53 | 38.47273 | -8.91083 | 17076 ft | 354 kts | 178° |
| 2026-04-28 23:53 | 38.44807 | -8.90885 | 17653 ft | 357 kts | 178° |
| 2026-04-28 23:54 | 38.42313 | -8.90686 | 18222 ft | 360 kts | 178° |
| 2026-04-28 23:54 | 38.39806 | -8.90487 | 18772 ft | 364 kts | 178° |
| 2026-04-28 23:54 | 38.37274 | -8.90286 | 19302 ft | 367 kts | 178° |
| 2026-04-28 23:54 | 38.34717 | -8.90083 | 19842 ft | 370 kts | 178° |
| 2026-04-28 23:55 | 38.32112 | -8.89877 | 20361 ft | 373 kts | 178° |
| 2026-04-28 23:55 | 38.29541 | -8.89674 | 20855 ft | 376 kts | 179° |
| 2026-04-28 23:55 | 38.26919 | -8.89465 | 21336 ft | 379 kts | 179° |
| 2026-04-28 23:55 | 38.24275 | -8.89257 | 21808 ft | 382 kts | 179° |
| 2026-04-28 23:56 | 38.21613 | -8.89047 | 22258 ft | 385 kts | 179° |
| 2026-04-28 23:56 | 38.18931 | -8.88837 | 22713 ft | 388 kts | 179° |
| 2026-04-28 23:56 | 38.16220 | -8.88623 | 23160 ft | 391 kts | 179° |
| 2026-04-28 23:56 | 38.13480 | -8.88406 | 23591 ft | 394 kts | 179° |
| 2026-04-28 23:57 | 38.10752 | -8.88181 | 24015 ft | 397 kts | 177° |
| 2026-04-28 23:57 | 38.07993 | -8.87645 | 24402 ft | 403 kts | 171° |
| 2026-04-28 23:57 | 38.05284 | -8.86680 | 24775 ft | 409 kts | 163° |
| 2026-04-28 23:57 | 38.02632 | -8.85315 | 25168 ft | 414 kts | 160° |
| 2026-04-28 23:58 | 37.99993 | -8.83825 | 25523 ft | 418 kts | 159° |
| 2026-04-28 23:58 | 37.97323 | -8.82299 | 25852 ft | 422 kts | 159° |
| 2026-04-28 23:58 | 37.94648 | -8.80771 | 26224 ft | 424 kts | 159° |
| 2026-04-28 23:58 | 37.91953 | -8.79237 | 26582 ft | 427 kts | 159° |
| 2026-04-28 23:59 | 37.89205 | -8.77680 | 26927 ft | 430 kts | 159° |
| 2026-04-28 23:59 | 37.86466 | -8.76133 | 27280 ft | 432 kts | 159° |
| 2026-04-28 23:59 | 37.83745 | -8.74597 | 27613 ft | 434 kts | 159° |
| 2026-04-28 23:59 | 37.80982 | -8.73039 | 27912 ft | 437 kts | 160° |
| 2026-04-29 00:00 | 37.78160 | -8.71450 | 28213 ft | 440 kts | 160° |
| 2026-04-29 00:00 | 37.75390 | -8.69893 | 28562 ft | 442 kts | 160° |
| 2026-04-29 00:00 | 37.72579 | -8.68312 | 28912 ft | 443 kts | 160° |
| 2026-04-29 00:00 | 37.69762 | -8.66730 | 29229 ft | 445 kts | 160° |
| 2026-04-29 00:01 | 37.66895 | -8.65167 | 29493 ft | 447 kts | 162° |
| 2026-04-29 00:01 | 37.63976 | -8.63776 | 29744 ft | 449 kts | 164° |
| 2026-04-29 00:01 | 37.61062 | -8.62426 | 29999 ft | 452 kts | 164° |
| 2026-04-29 00:01 | 37.58101 | -8.61060 | 30252 ft | 455 kts | 164° |
| 2026-04-29 00:02 | 37.55106 | -8.59677 | 30510 ft | 457 kts | 164° |
| 2026-04-29 00:02 | 37.52110 | -8.58296 | 30746 ft | 459 kts | 164° |
| 2026-04-29 00:02 | 37.49083 | -8.56901 | 30950 ft | 463 kts | 164° |
| 2026-04-29 00:02 | 37.46088 | -8.55522 | 31173 ft | 465 kts | 164° |
| 2026-04-29 00:03 | 37.43032 | -8.54116 | 31419 ft | 468 kts | 164° |
| 2026-04-29 00:03 | 37.39957 | -8.52701 | 31667 ft | 469 kts | 164° |
| 2026-04-29 00:03 | 37.36892 | -8.51291 | 31887 ft | 471 kts | 164° |
| 2026-04-29 00:03 | 37.33815 | -8.49876 | 32092 ft | 474 kts | 164° |
| 2026-04-29 00:04 | 37.30715 | -8.48455 | 32374 ft | 475 kts | 164° |
| 2026-04-29 00:04 | 37.27576 | -8.47015 | 32712 ft | 474 kts | 164° |
| 2026-04-29 00:04 | 37.24503 | -8.45606 | 32998 ft | 475 kts | 164° |
| 2026-04-29 00:04 | 37.21382 | -8.44178 | 33230 ft | 476 kts | 164° |
| 2026-04-29 00:05 | 37.18261 | -8.42751 | 33463 ft | 478 kts | 164° |
| 2026-04-29 00:05 | 37.15169 | -8.41338 | 33710 ft | 479 kts | 164° |
| 2026-04-29 00:05 | 37.12028 | -8.39906 | 33971 ft | 479 kts | 164° |
| 2026-04-29 00:05 | 37.08885 | -8.38472 | 34244 ft | 480 kts | 164° |
| 2026-04-29 00:06 | 37.05736 | -8.37040 | 34477 ft | 481 kts | 164° |
| 2026-04-29 00:06 | 37.02613 | -8.35618 | 34748 ft | 481 kts | 164° |
| 2026-04-29 00:06 | 36.99486 | -8.34195 | 35077 ft | 480 kts | 164° |
| 2026-04-29 00:06 | 36.96332 | -8.32763 | 35350 ft | 479 kts | 164° |
| 2026-04-29 00:07 | 36.93198 | -8.31342 | 35551 ft | 481 kts | 164° |
| 2026-04-29 00:07 | 36.90052 | -8.29915 | 35770 ft | 481 kts | 164° |
| 2026-04-29 00:07 | 36.86848 | -8.28465 | 35991 ft | 481 kts | 163° |
| 2026-04-29 00:07 | 36.83731 | -8.27051 | 36171 ft | 482 kts | 163° |
| 2026-04-29 00:08 | 36.80569 | -8.25619 | 36363 ft | 482 kts | 163° |
| 2026-04-29 00:08 | 36.77401 | -8.24184 | 36560 ft | 483 kts | 163° |
| 2026-04-29 00:08 | 36.74255 | -8.22762 | 36754 ft | 483 kts | 163° |
| 2026-04-29 00:08 | 36.71111 | -8.21341 | 36860 ft | 484 kts | 163° |
| 2026-04-29 00:09 | 36.64751 | -8.18475 | 36867 ft | 485 kts | 163° |
| 2026-04-29 00:09 | 36.58444 | -8.15637 | 36865 ft | 484 kts | 163° |
| 2026-04-29 00:10 | 36.52085 | -8.12785 | 36870 ft | 485 kts | 163° |
| 2026-04-29 00:10 | 36.45758 | -8.09973 | 36871 ft | 485 kts | 163° |
| 2026-04-29 00:11 | 36.39362 | -8.07140 | 36871 ft | 486 kts | 163° |
| 2026-04-29 00:12 | 36.29834 | -8.02927 | 36882 ft | 486 kts | 163° |
| 2026-04-29 00:12 | 36.23476 | -8.00119 | 36882 ft | 485 kts | 163° |
| 2026-04-29 00:13 | 36.17093 | -7.97307 | 36882 ft | 486 kts | 163° |
| 2026-04-29 00:13 | 36.10726 | -7.94506 | 36885 ft | 486 kts | 163° |
| 2026-04-29 00:13 | 36.07542 | -7.93109 | 36664 ft | 486 kts | 163° |
| 2026-04-29 00:14 | 36.04345 | -7.91705 | 36823 ft | 488 kts | 163° |
| 2026-04-29 00:14 | 35.97857 | -7.89323 | 36879 ft | 485 kts | 170° |
| 2026-04-29 00:14 | 35.94523 | -7.88474 | 37154 ft | 484 kts | 173° |
| 2026-04-29 00:15 | 35.91230 | -7.87871 | 36987 ft | 481 kts | 177° |
| 2026-04-29 00:15 | 35.84545 | -7.87206 | 36904 ft | 479 kts | 179° |
| 2026-04-29 00:16 | 35.77911 | -7.86623 | 36894 ft | 480 kts | 179° |
| 2026-04-29 00:16 | 35.71260 | -7.86025 | 36894 ft | 479 kts | 179° |
| 2026-04-29 00:17 | 35.64606 | -7.85425 | 36896 ft | 479 kts | 179° |
| 2026-04-29 00:17 | 35.57968 | -7.84824 | 36898 ft | 480 kts | 179° |
| 2026-04-29 00:18 | 35.51306 | -7.84224 | 36898 ft | 480 kts | 179° |
| 2026-04-29 00:18 | 35.44616 | -7.83623 | 36900 ft | 480 kts | 179° |
| 2026-04-29 00:19 | 35.37974 | -7.83034 | 36899 ft | 480 kts | 179° |
| 2026-04-29 00:19 | 35.31299 | -7.82471 | 36901 ft | 481 kts | 179° |
| 2026-04-29 00:20 | 35.24624 | -7.81909 | 36901 ft | 481 kts | 179° |
| 2026-04-29 00:20 | 35.17959 | -7.81351 | 36904 ft | 481 kts | 179° |
| 2026-04-29 00:21 | 35.11281 | -7.80791 | 36909 ft | 481 kts | 179° |
| 2026-04-29 00:21 | 35.04622 | -7.80233 | 36908 ft | 481 kts | 179° |
| 2026-04-29 00:22 | 34.97921 | -7.79672 | 36911 ft | 481 kts | 179° |
| 2026-04-29 00:22 | 34.91251 | -7.79114 | 36910 ft | 482 kts | 179° |
| 2026-04-29 00:23 | 34.84549 | -7.78554 | 36910 ft | 481 kts | 179° |
| 2026-04-29 00:23 | 34.77871 | -7.77998 | 36912 ft | 481 kts | 179° |
| 2026-04-29 00:24 | 34.71182 | -7.77462 | 36918 ft | 480 kts | 180° |
| 2026-04-29 00:24 | 34.64513 | -7.77000 | 36918 ft | 481 kts | 180° |
| 2026-04-29 00:25 | 34.57813 | -7.76541 | 36916 ft | 480 kts | 180° |
| 2026-04-29 00:25 | 34.51133 | -7.76079 | 36918 ft | 481 kts | 180° |
| 2026-04-29 00:26 | 34.44454 | -7.75613 | 36916 ft | 481 kts | 180° |
| 2026-04-29 00:26 | 34.37786 | -7.75149 | 36914 ft | 480 kts | 180° |
| 2026-04-29 00:27 | 34.31137 | -7.74688 | 36916 ft | 480 kts | 180° |
| 2026-04-29 00:27 | 34.24453 | -7.74228 | 36904 ft | 480 kts | 180° |
| 2026-04-29 00:28 | 34.17781 | -7.73760 | 36907 ft | 480 kts | 180° |
| 2026-04-29 00:28 | 34.11124 | -7.73154 | 36910 ft | 481 kts | 179° |
| 2026-04-29 00:29 | 34.04433 | -7.72517 | 36906 ft | 481 kts | 179° |
| 2026-04-29 00:29 | 33.97776 | -7.71895 | 36911 ft | 480 kts | 179° |
| 2026-04-29 00:30 | 33.91090 | -7.71277 | 36906 ft | 481 kts | 179° |
| 2026-04-29 00:30 | 33.84421 | -7.70664 | 36908 ft | 481 kts | 179° |
| 2026-04-29 00:31 | 33.77759 | -7.70051 | 36905 ft | 480 kts | 179° |
| 2026-04-29 00:31 | 33.71083 | -7.69440 | 36912 ft | 480 kts | 179° |
| 2026-04-29 00:32 | 33.64428 | -7.68830 | 36911 ft | 479 kts | 179° |
| 2026-04-29 00:32 | 33.57811 | -7.68612 | 36925 ft | 475 kts | 187° |
| 2026-04-29 00:33 | 33.51337 | -7.69800 | 36927 ft | 467 kts | 198° |
| 2026-04-29 00:33 | 33.45224 | -7.72370 | 36930 ft | 462 kts | 209° |
| 2026-04-29 00:34 | 33.39588 | -7.75954 | 36938 ft | 459 kts | 213° |
| 2026-04-29 00:34 | 33.34024 | -7.79677 | 36937 ft | 459 kts | 213° |
| 2026-04-29 00:35 | 33.28445 | -7.83386 | 36938 ft | 459 kts | 213° |
| 2026-04-29 00:35 | 33.22857 | -7.87082 | 36940 ft | 459 kts | 213° |
| 2026-04-29 00:36 | 33.17270 | -7.90769 | 36930 ft | 460 kts | 213° |
| 2026-04-29 00:36 | 33.11647 | -7.94478 | 36929 ft | 461 kts | 213° |
| 2026-04-29 00:37 | 33.06035 | -7.98171 | 36935 ft | 461 kts | 213° |
| 2026-04-29 00:37 | 33.00402 | -8.01798 | 36932 ft | 462 kts | 210° |
| 2026-04-29 00:38 | 32.94435 | -8.04835 | 36929 ft | 466 kts | 204° |
| 2026-04-29 00:38 | 32.88213 | -8.07042 | 36931 ft | 470 kts | 197° |
| 2026-04-29 00:39 | 32.81736 | -8.08415 | 36929 ft | 473 kts | 192° |
| 2026-04-29 00:39 | 32.75195 | -8.09482 | 36931 ft | 474 kts | 192° |
| 2026-04-29 00:40 | 32.68649 | -8.10556 | 36933 ft | 474 kts | 192° |
| 2026-04-29 00:40 | 32.62139 | -8.11620 | 36931 ft | 474 kts | 192° |
| 2026-04-29 00:41 | 32.55618 | -8.12684 | 36939 ft | 473 kts | 192° |
| 2026-04-29 00:41 | 32.49095 | -8.13747 | 36939 ft | 473 kts | 192° |
| 2026-04-29 00:42 | 32.42581 | -8.14809 | 36946 ft | 473 kts | 192° |
| 2026-04-29 00:42 | 32.36065 | -8.15869 | 36941 ft | 473 kts | 192° |
| 2026-04-29 00:43 | 32.29548 | -8.16928 | 36945 ft | 473 kts | 192° |
| 2026-04-29 00:43 | 32.23024 | -8.17988 | 36941 ft | 473 kts | 192° |
| 2026-04-29 00:44 | 32.16435 | -8.18843 | 36949 ft | 476 kts | 187° |
| 2026-04-29 00:44 | 32.09781 | -8.18875 | 36943 ft | 479 kts | 181° |
| 2026-04-29 00:45 | 32.03146 | -8.18027 | 36950 ft | 483 kts | 175° |
| 2026-04-29 00:45 | 31.96508 | -8.16786 | 36949 ft | 483 kts | 175° |
| 2026-04-29 00:46 | 31.89860 | -8.15548 | 36956 ft | 483 kts | 175° |
| 2026-04-29 00:46 | 31.83178 | -8.14316 | 36967 ft | 483 kts | 175° |
| 2026-04-29 00:47 | 31.76575 | -8.13104 | 36967 ft | 483 kts | 175° |
| 2026-04-29 00:47 | 31.69907 | -8.11916 | 36970 ft | 483 kts | 177° |
| 2026-04-29 00:48 | 31.63212 | -8.11418 | 36973 ft | 478 kts | 185° |
| 2026-04-29 00:48 | 31.56629 | -8.11888 | 36977 ft | 473 kts | 192° |
| 2026-04-29 00:49 | 31.50205 | -8.13274 | 36976 ft | 468 kts | 198° |
| 2026-04-29 00:49 | 31.43882 | -8.15012 | 36978 ft | 467 kts | 198° |
| 2026-04-29 00:50 | 31.37523 | -8.16751 | 36998 ft | 467 kts | 198° |
| 2026-04-29 00:50 | 31.31196 | -8.18473 | 37011 ft | 468 kts | 198° |
| 2026-04-29 00:51 | 31.24844 | -8.20197 | 37030 ft | 468 kts | 198° |
| 2026-04-29 00:51 | 31.18494 | -8.21915 | 37043 ft | 467 kts | 198° |
| 2026-04-29 00:52 | 31.12164 | -8.23627 | 37061 ft | 467 kts | 198° |
| 2026-04-29 00:52 | 31.05845 | -8.25332 | 37073 ft | 466 kts | 198° |
| 2026-04-29 00:53 | 30.99488 | -8.27046 | 37073 ft | 466 kts | 198° |
| 2026-04-29 00:53 | 30.93180 | -8.28746 | 37067 ft | 466 kts | 198° |
| 2026-04-29 00:54 | 30.86890 | -8.30437 | 37066 ft | 465 kts | 198° |
| 2026-04-29 00:54 | 30.80545 | -8.32141 | 37053 ft | 465 kts | 198° |
| 2026-04-29 00:55 | 30.74262 | -8.33827 | 37042 ft | 465 kts | 198° |
| 2026-04-29 00:55 | 30.67933 | -8.35523 | 37030 ft | 464 kts | 198° |
| 2026-04-29 00:56 | 30.61641 | -8.37206 | 37028 ft | 464 kts | 198° |
| 2026-04-29 00:56 | 30.55339 | -8.38891 | 37022 ft | 464 kts | 198° |
| 2026-04-29 00:57 | 30.49079 | -8.40570 | 37017 ft | 463 kts | 198° |
| 2026-04-29 00:57 | 30.42769 | -8.42261 | 37014 ft | 464 kts | 198° |
| 2026-04-29 00:58 | 30.36506 | -8.43938 | 37010 ft | 462 kts | 198° |
| 2026-04-29 00:58 | 30.30214 | -8.45620 | 37020 ft | 462 kts | 198° |
| 2026-04-29 00:59 | 30.23963 | -8.47290 | 37023 ft | 462 kts | 198° |
| 2026-04-29 00:59 | 30.17657 | -8.48972 | 37013 ft | 462 kts | 198° |
| 2026-04-29 01:00 | 30.11397 | -8.50639 | 37013 ft | 462 kts | 198° |
| 2026-04-29 01:00 | 30.05125 | -8.52307 | 37021 ft | 461 kts | 198° |
| 2026-04-29 01:01 | 29.98842 | -8.53976 | 37024 ft | 461 kts | 198° |
| 2026-04-29 01:01 | 29.92617 | -8.55628 | 37015 ft | 461 kts | 198° |
| 2026-04-29 01:02 | 29.86335 | -8.57294 | 37003 ft | 460 kts | 198° |
| 2026-04-29 01:02 | 29.80127 | -8.58937 | 37005 ft | 460 kts | 198° |
| 2026-04-29 01:03 | 29.73883 | -8.60587 | 36997 ft | 460 kts | 198° |
| 2026-04-29 01:03 | 29.67629 | -8.62239 | 36989 ft | 460 kts | 197° |
| 2026-04-29 01:04 | 29.61377 | -8.63885 | 36984 ft | 460 kts | 198° |
| 2026-04-29 01:04 | 29.55139 | -8.65531 | 36974 ft | 460 kts | 197° |
| 2026-04-29 01:05 | 29.48893 | -8.67175 | 36952 ft | 459 kts | 197° |
| 2026-04-29 01:05 | 29.42697 | -8.68803 | 36951 ft | 459 kts | 197° |
| 2026-04-29 01:06 | 29.36436 | -8.70445 | 36935 ft | 459 kts | 197° |
| 2026-04-29 01:06 | 29.30232 | -8.72072 | 36929 ft | 458 kts | 197° |
| 2026-04-29 01:07 | 29.23999 | -8.73702 | 36917 ft | 458 kts | 197° |
| 2026-04-29 01:07 | 29.17788 | -8.75325 | 36913 ft | 458 kts | 197° |
| 2026-04-29 01:08 | 29.11586 | -8.76946 | 36895 ft | 458 kts | 197° |
| 2026-04-29 01:08 | 29.05339 | -8.78575 | 36888 ft | 458 kts | 197° |
| 2026-04-29 01:09 | 28.99135 | -8.80189 | 36871 ft | 458 kts | 197° |
| 2026-04-29 01:09 | 28.92911 | -8.81804 | 36870 ft | 457 kts | 197° |
| 2026-04-29 01:10 | 28.86691 | -8.83414 | 36867 ft | 458 kts | 197° |
| 2026-04-29 01:10 | 28.80450 | -8.85031 | 36872 ft | 458 kts | 197° |
| 2026-04-29 01:11 | 28.74233 | -8.86638 | 36877 ft | 457 kts | 197° |
| 2026-04-29 01:11 | 28.68010 | -8.88243 | 36876 ft | 457 kts | 197° |
| 2026-04-29 01:12 | 28.61814 | -8.89841 | 36877 ft | 456 kts | 197° |
| 2026-04-29 01:12 | 28.55622 | -8.91438 | 36877 ft | 456 kts | 197° |
| 2026-04-29 01:13 | 28.49464 | -8.93023 | 36881 ft | 455 kts | 197° |
| 2026-04-29 01:13 | 28.43278 | -8.94614 | 36887 ft | 455 kts | 196° |
| 2026-04-29 01:14 | 28.37066 | -8.96209 | 36892 ft | 455 kts | 196° |
| 2026-04-29 01:14 | 28.30911 | -8.97786 | 36889 ft | 455 kts | 197° |
| 2026-04-29 01:15 | 28.24730 | -8.99371 | 36892 ft | 455 kts | 196° |
| 2026-04-29 01:15 | 28.18521 | -9.00959 | 36896 ft | 455 kts | 196° |
| 2026-04-29 01:16 | 28.12353 | -9.02536 | 36895 ft | 454 kts | 196° |
| 2026-04-29 01:16 | 28.06177 | -9.04111 | 36906 ft | 453 kts | 196° |
| 2026-04-29 01:17 | 28.00000 | -9.05685 | 36902 ft | 454 kts | 196° |
| 2026-04-29 01:17 | 27.93873 | -9.07245 | 36904 ft | 454 kts | 197° |
| 2026-04-29 01:18 | 27.87685 | -9.08818 | 36908 ft | 453 kts | 197° |
| 2026-04-29 01:18 | 27.78452 | -9.11165 | 36911 ft | 452 kts | 197° |
| 2026-04-29 01:19 | 27.72214 | -9.12285 | 36914 ft | 457 kts | 187° |
| 2026-04-29 01:19 | 27.65803 | -9.11931 | 36908 ft | 465 kts | 175° |
| 2026-04-29 01:20 | 27.59520 | -9.10030 | 36906 ft | 473 kts | 163° |
| 2026-04-29 01:20 | 27.53511 | -9.06847 | 36906 ft | 477 kts | 158° |
| 2026-04-29 01:21 | 27.47577 | -9.03485 | 36901 ft | 477 kts | 158° |
| 2026-04-29 01:21 | 27.41645 | -9.00138 | 36903 ft | 477 kts | 158° |
| 2026-04-29 01:22 | 27.35708 | -8.96808 | 36903 ft | 477 kts | 158° |
| 2026-04-29 01:22 | 27.29769 | -8.93485 | 36904 ft | 477 kts | 159° |
| 2026-04-29 01:23 | 27.23829 | -8.90169 | 36905 ft | 476 kts | 159° |
| 2026-04-29 01:23 | 27.17875 | -8.86849 | 36905 ft | 477 kts | 159° |
| 2026-04-29 01:24 | 27.11951 | -8.83550 | 36903 ft | 477 kts | 159° |
| 2026-04-29 01:24 | 27.05976 | -8.80227 | 36909 ft | 477 kts | 159° |
| 2026-04-29 01:25 | 27.00035 | -8.76926 | 36913 ft | 477 kts | 159° |
| 2026-04-29 01:25 | 26.94068 | -8.73613 | 36920 ft | 476 kts | 159° |
| 2026-04-29 01:26 | 26.88110 | -8.70311 | 36923 ft | 477 kts | 160° |
| 2026-04-29 01:26 | 26.82176 | -8.67027 | 36921 ft | 477 kts | 160° |
| 2026-04-29 01:27 | 26.76216 | -8.63733 | 36922 ft | 477 kts | 160° |
| 2026-04-29 01:27 | 26.70257 | -8.60441 | 36920 ft | 477 kts | 160° |
| 2026-04-29 01:28 | 26.64324 | -8.57169 | 36919 ft | 476 kts | 160° |
| 2026-04-29 01:28 | 26.58360 | -8.53881 | 36918 ft | 477 kts | 160° |
| 2026-04-29 01:29 | 26.52418 | -8.50611 | 36915 ft | 476 kts | 160° |
| 2026-04-29 01:29 | 26.46459 | -8.47337 | 36912 ft | 476 kts | 160° |
| 2026-04-29 01:30 | 26.40497 | -8.44064 | 36907 ft | 477 kts | 160° |
| 2026-04-29 01:30 | 26.34571 | -8.40815 | 36905 ft | 476 kts | 160° |
| 2026-04-29 01:31 | 26.28623 | -8.37556 | 36903 ft | 476 kts | 160° |
| 2026-04-29 01:31 | 26.22648 | -8.34286 | 36901 ft | 476 kts | 161° |
| 2026-04-29 01:32 | 26.16678 | -8.31023 | 36907 ft | 476 kts | 161° |
| 2026-04-29 01:32 | 26.10722 | -8.27772 | 36911 ft | 476 kts | 161° |
| 2026-04-29 01:33 | 26.04800 | -8.24541 | 36909 ft | 476 kts | 161° |
| 2026-04-29 01:33 | 25.98837 | -8.21294 | 36910 ft | 476 kts | 161° |
| 2026-04-29 01:34 | 25.92899 | -8.18061 | 36903 ft | 475 kts | 161° |
| 2026-04-29 01:34 | 25.86969 | -8.14842 | 36903 ft | 475 kts | 161° |
| 2026-04-29 01:35 | 25.81023 | -8.11613 | 36898 ft | 475 kts | 161° |
| 2026-04-29 01:35 | 25.75050 | -8.08373 | 36902 ft | 475 kts | 161° |
| 2026-04-29 01:36 | 25.69105 | -8.05154 | 36904 ft | 474 kts | 161° |
| 2026-04-29 01:36 | 25.63190 | -8.01953 | 36902 ft | 474 kts | 161° |
| 2026-04-29 01:37 | 25.57224 | -7.98733 | 36901 ft | 474 kts | 161° |
| 2026-04-29 01:37 | 25.51293 | -7.95534 | 36907 ft | 475 kts | 161° |
| 2026-04-29 01:38 | 25.45347 | -7.92327 | 36915 ft | 476 kts | 161° |
| 2026-04-29 01:38 | 25.39375 | -7.89108 | 36923 ft | 476 kts | 161° |
| 2026-04-29 01:39 | 25.33426 | -7.85906 | 36924 ft | 476 kts | 161° |
| 2026-04-29 01:39 | 25.27472 | -7.82704 | 36921 ft | 476 kts | 162° |
| 2026-04-29 01:40 | 25.21522 | -7.79503 | 36921 ft | 474 kts | 162° |
| 2026-04-29 01:40 | 25.15577 | -7.76315 | 36922 ft | 475 kts | 162° |
| 2026-04-29 01:41 | 25.09597 | -7.73121 | 36921 ft | 475 kts | 162° |
| 2026-04-29 01:41 | 25.03642 | -7.69937 | 36918 ft | 476 kts | 162° |
| 2026-04-29 01:42 | 24.97676 | -7.66748 | 36916 ft | 475 kts | 162° |
| 2026-04-29 01:42 | 24.91724 | -7.63568 | 36922 ft | 476 kts | 162° |
| 2026-04-29 01:43 | 24.85767 | -7.60388 | 36918 ft | 476 kts | 162° |
| 2026-04-29 01:43 | 24.79804 | -7.57211 | 36921 ft | 475 kts | 162° |
| 2026-04-29 01:44 | 24.73831 | -7.54030 | 36922 ft | 474 kts | 162° |
| 2026-04-29 01:44 | 24.67915 | -7.50884 | 36921 ft | 474 kts | 162° |
| 2026-04-29 01:45 | 24.61966 | -7.47725 | 36916 ft | 475 kts | 162° |
| 2026-04-29 01:45 | 24.55985 | -7.44550 | 36918 ft | 474 kts | 162° |
| 2026-04-29 01:46 | 24.50037 | -7.41398 | 36915 ft | 475 kts | 162° |
| 2026-04-29 01:46 | 24.44066 | -7.38235 | 36915 ft | 476 kts | 162° |
| 2026-04-29 01:47 | 24.38103 | -7.35081 | 36916 ft | 475 kts | 162° |
| 2026-04-29 01:47 | 24.32167 | -7.31945 | 36913 ft | 475 kts | 163° |
| 2026-04-29 01:48 | 24.26200 | -7.28793 | 36915 ft | 475 kts | 163° |
| 2026-04-29 01:48 | 24.20227 | -7.25642 | 36914 ft | 476 kts | 163° |
| 2026-04-29 01:49 | 24.14269 | -7.22501 | 36913 ft | 476 kts | 163° |
| 2026-04-29 01:49 | 24.08265 | -7.19343 | 36906 ft | 475 kts | 163° |
| 2026-04-29 01:50 | 24.02278 | -7.16193 | 36901 ft | 476 kts | 163° |
| 2026-04-29 01:50 | 23.96309 | -7.13060 | 36895 ft | 475 kts | 164° |
| 2026-04-29 01:51 | 23.90373 | -7.09949 | 36889 ft | 476 kts | 164° |
| 2026-04-29 01:51 | 23.84369 | -7.06802 | 36891 ft | 477 kts | 164° |
| 2026-04-29 01:52 | 23.78389 | -7.03671 | 36895 ft | 476 kts | 164° |
| 2026-04-29 01:52 | 23.72398 | -7.00535 | 36888 ft | 476 kts | 164° |
| 2026-04-29 01:53 | 23.66418 | -6.97410 | 36886 ft | 477 kts | 164° |
| 2026-04-29 01:53 | 23.60422 | -6.94278 | 36883 ft | 477 kts | 164° |
| 2026-04-29 01:54 | 23.54439 | -6.91159 | 36889 ft | 477 kts | 164° |
| 2026-04-29 01:54 | 23.48446 | -6.88044 | 36886 ft | 477 kts | 165° |
| 2026-04-29 01:55 | 23.42454 | -6.84933 | 36878 ft | 476 kts | 165° |
| 2026-04-29 01:55 | 23.36496 | -6.81841 | 36883 ft | 477 kts | 165° |
| 2026-04-29 01:56 | 23.30478 | -6.78715 | 36889 ft | 477 kts | 165° |
| 2026-04-29 01:56 | 23.24501 | -6.75617 | 36887 ft | 476 kts | 165° |
| 2026-04-29 01:57 | 23.18524 | -6.72522 | 36886 ft | 475 kts | 165° |
| 2026-04-29 01:57 | 23.12524 | -6.69418 | 36885 ft | 477 kts | 165° |
| 2026-04-29 01:58 | 23.06545 | -6.66324 | 36883 ft | 476 kts | 165° |
| 2026-04-29 01:58 | 23.00550 | -6.63230 | 36889 ft | 478 kts | 165° |
| 2026-04-29 01:59 | 22.94563 | -6.60142 | 36893 ft | 480 kts | 165° |
| 2026-04-29 01:59 | 22.88508 | -6.57018 | 36896 ft | 478 kts | 165° |
| 2026-04-29 02:00 | 22.82470 | -6.53910 | 36892 ft | 479 kts | 165° |
| 2026-04-29 02:00 | 22.76431 | -6.50806 | 36892 ft | 480 kts | 165° |
| 2026-04-29 02:01 | 22.70438 | -6.47723 | 36896 ft | 479 kts | 165° |
| 2026-04-29 02:01 | 22.64374 | -6.44609 | 36896 ft | 480 kts | 165° |
| 2026-04-29 02:02 | 22.58344 | -6.41520 | 36897 ft | 480 kts | 165° |
| 2026-04-29 02:02 | 22.52294 | -6.38417 | 36892 ft | 479 kts | 165° |
| 2026-04-29 02:03 | 22.46284 | -6.35339 | 36893 ft | 479 kts | 165° |
| 2026-04-29 02:03 | 22.40241 | -6.32250 | 36889 ft | 480 kts | 166° |
| 2026-04-29 02:04 | 22.34188 | -6.29155 | 36889 ft | 480 kts | 166° |
| 2026-04-29 02:04 | 22.28149 | -6.26074 | 36895 ft | 481 kts | 166° |
| 2026-04-29 02:05 | 22.22067 | -6.22973 | 36902 ft | 482 kts | 165° |
| 2026-04-29 02:05 | 22.16015 | -6.19882 | 36891 ft | 481 kts | 166° |
| 2026-04-29 02:06 | 22.09957 | -6.16796 | 36892 ft | 481 kts | 165° |
| 2026-04-29 02:06 | 22.03881 | -6.13702 | 36896 ft | 481 kts | 166° |
| 2026-04-29 02:07 | 21.97831 | -6.10632 | 36894 ft | 482 kts | 166° |
| 2026-04-29 02:07 | 21.91767 | -6.07560 | 36896 ft | 481 kts | 166° |
| 2026-04-29 02:08 | 21.85718 | -6.04495 | 36895 ft | 479 kts | 165° |
| 2026-04-29 02:08 | 21.79654 | -6.01426 | 36894 ft | 481 kts | 166° |
| 2026-04-29 02:09 | 21.73601 | -5.98365 | 36894 ft | 482 kts | 165° |
| 2026-04-29 02:09 | 21.67522 | -5.95293 | 36896 ft | 483 kts | 165° |
| 2026-04-29 02:10 | 21.61439 | -5.92215 | 36895 ft | 483 kts | 165° |
| 2026-04-29 02:10 | 21.55353 | -5.89140 | 36889 ft | 482 kts | 165° |
| 2026-04-29 02:11 | 21.49260 | -5.86067 | 36887 ft | 482 kts | 165° |
| 2026-04-29 02:11 | 21.43174 | -5.83003 | 36887 ft | 483 kts | 165° |
| 2026-04-29 02:12 | 21.37097 | -5.79943 | 36881 ft | 483 kts | 165° |
| 2026-04-29 02:12 | 21.31021 | -5.76888 | 36881 ft | 482 kts | 165° |
| 2026-04-29 02:13 | 21.24918 | -5.73824 | 36877 ft | 485 kts | 165° |
| 2026-04-29 02:13 | 21.18814 | -5.70758 | 36872 ft | 484 kts | 165° |
| 2026-04-29 02:14 | 21.12673 | -5.67680 | 36865 ft | 486 kts | 165° |
| 2026-04-29 02:14 | 21.06567 | -5.64619 | 36860 ft | 485 kts | 165° |
| 2026-04-29 02:15 | 21.00444 | -5.61554 | 36859 ft | 485 kts | 165° |
| 2026-04-29 02:15 | 20.94330 | -5.58493 | 36862 ft | 485 kts | 165° |
| 2026-04-29 02:16 | 20.88215 | -5.55437 | 36864 ft | 485 kts | 165° |
| 2026-04-29 02:16 | 20.82096 | -5.52380 | 36863 ft | 485 kts | 165° |
| 2026-04-29 02:17 | 20.75985 | -5.49327 | 36862 ft | 484 kts | 165° |
| 2026-04-29 02:17 | 20.69868 | -5.46281 | 36861 ft | 483 kts | 165° |
| 2026-04-29 02:18 | 20.63746 | -5.43241 | 36862 ft | 485 kts | 165° |
| 2026-04-29 02:18 | 20.57589 | -5.40179 | 36864 ft | 485 kts | 165° |
| 2026-04-29 02:19 | 20.51447 | -5.37129 | 36868 ft | 487 kts | 164° |
| 2026-04-29 02:19 | 20.45343 | -5.34095 | 36865 ft | 486 kts | 165° |
| 2026-04-29 02:20 | 20.39194 | -5.31043 | 36871 ft | 485 kts | 165° |
| 2026-04-29 02:20 | 20.33055 | -5.28001 | 36874 ft | 486 kts | 165° |
| 2026-04-29 02:21 | 20.26926 | -5.24961 | 36874 ft | 484 kts | 165° |
| 2026-04-29 02:21 | 20.20797 | -5.21929 | 36882 ft | 484 kts | 165° |
| 2026-04-29 02:22 | 20.14666 | -5.18898 | 36888 ft | 483 kts | 165° |
| 2026-04-29 02:22 | 20.08548 | -5.15876 | 36890 ft | 484 kts | 165° |
| 2026-04-29 02:23 | 20.02448 | -5.12866 | 36889 ft | 486 kts | 165° |
| 2026-04-29 02:23 | 19.96288 | -5.09829 | 36887 ft | 487 kts | 164° |
| 2026-04-29 02:24 | 19.90146 | -5.06800 | 36884 ft | 485 kts | 164° |
| 2026-04-29 02:25 | 19.80943 | -5.02269 | 36874 ft | 485 kts | 164° |
| 2026-04-29 02:25 | 19.74786 | -4.99240 | 36870 ft | 485 kts | 164° |
| 2026-04-29 02:26 | 19.68685 | -4.96242 | 36873 ft | 485 kts | 164° |
| 2026-04-29 02:26 | 19.62551 | -4.93229 | 36874 ft | 484 kts | 163° |
| 2026-04-29 02:27 | 19.56451 | -4.90237 | 36873 ft | 485 kts | 163° |
| 2026-04-29 02:27 | 19.50310 | -4.87224 | 36877 ft | 485 kts | 163° |
| 2026-04-29 02:28 | 19.44177 | -4.84218 | 36878 ft | 484 kts | 163° |
| 2026-04-29 02:28 | 19.38077 | -4.81231 | 36876 ft | 485 kts | 163° |
| 2026-04-29 02:29 | 19.31939 | -4.78238 | 36878 ft | 483 kts | 163° |
| 2026-04-29 02:29 | 19.25797 | -4.75247 | 36877 ft | 484 kts | 163° |
| 2026-04-29 02:30 | 19.19693 | -4.72273 | 36876 ft | 483 kts | 163° |
| 2026-04-29 02:30 | 19.13555 | -4.69281 | 36879 ft | 483 kts | 163° |
| 2026-04-29 02:31 | 19.07476 | -4.66323 | 36880 ft | 483 kts | 163° |
| 2026-04-29 02:31 | 19.01338 | -4.63334 | 36879 ft | 483 kts | 163° |
| 2026-04-29 02:32 | 18.95235 | -4.60367 | 36880 ft | 483 kts | 163° |
| 2026-04-29 02:32 | 18.89128 | -4.57401 | 36878 ft | 482 kts | 163° |
| 2026-04-29 02:33 | 18.82986 | -4.54419 | 36881 ft | 483 kts | 163° |
| 2026-04-29 02:33 | 18.76875 | -4.51456 | 36880 ft | 484 kts | 163° |
| 2026-04-29 02:34 | 18.70740 | -4.48482 | 36876 ft | 482 kts | 162° |
| 2026-04-29 02:34 | 18.64624 | -4.45522 | 36886 ft | 482 kts | 162° |
| 2026-04-29 02:35 | 18.58502 | -4.42560 | 36883 ft | 483 kts | 162° |
| 2026-04-29 02:35 | 18.52387 | -4.39603 | 36891 ft | 484 kts | 162° |
| 2026-04-29 02:36 | 18.46255 | -4.36640 | 36890 ft | 483 kts | 162° |
| 2026-04-29 02:36 | 18.40145 | -4.33690 | 36892 ft | 482 kts | 163° |
| 2026-04-29 02:37 | 18.34015 | -4.30734 | 36894 ft | 483 kts | 162° |
| 2026-04-29 02:37 | 18.27929 | -4.27801 | 36894 ft | 483 kts | 162° |
| 2026-04-29 02:38 | 18.21797 | -4.24846 | 36895 ft | 483 kts | 162° |
| 2026-04-29 02:38 | 18.15643 | -4.21880 | 36897 ft | 483 kts | 162° |
| 2026-04-29 02:39 | 18.09531 | -4.18940 | 36899 ft | 483 kts | 162° |
| 2026-04-29 02:39 | 18.03387 | -4.15989 | 36899 ft | 484 kts | 162° |
| 2026-04-29 02:40 | 17.97297 | -4.13066 | 36898 ft | 483 kts | 162° |
| 2026-04-29 02:40 | 17.91165 | -4.10124 | 36896 ft | 483 kts | 162° |
| 2026-04-29 02:41 | 17.85041 | -4.07189 | 36895 ft | 482 kts | 162° |
| 2026-04-29 02:41 | 17.78897 | -4.04246 | 36895 ft | 483 kts | 162° |
| 2026-04-29 02:42 | 17.72759 | -4.01310 | 36895 ft | 485 kts | 162° |
| 2026-04-29 02:42 | 17.66637 | -3.98380 | 36895 ft | 484 kts | 162° |
| 2026-04-29 02:43 | 17.60499 | -3.95445 | 36894 ft | 484 kts | 162° |
| 2026-04-29 02:43 | 17.54345 | -3.92507 | 36894 ft | 485 kts | 162° |
| 2026-04-29 02:44 | 17.48173 | -3.89561 | 36892 ft | 485 kts | 162° |
| 2026-04-29 02:44 | 17.42057 | -3.86644 | 36892 ft | 485 kts | 162° |
| 2026-04-29 02:45 | 17.35875 | -3.83698 | 36892 ft | 485 kts | 162° |
| 2026-04-29 02:45 | 17.29738 | -3.80776 | 36894 ft | 485 kts | 162° |
| 2026-04-29 02:46 | 17.23571 | -3.77842 | 36895 ft | 486 kts | 161° |
| 2026-04-29 02:46 | 17.17359 | -3.74890 | 36898 ft | 487 kts | 161° |
| 2026-04-29 02:47 | 17.11183 | -3.71954 | 36900 ft | 487 kts | 161° |
| 2026-04-29 02:47 | 17.04992 | -3.69014 | 36901 ft | 488 kts | 161° |
| 2026-04-29 02:48 | 16.98820 | -3.66086 | 36900 ft | 487 kts | 161° |
| 2026-04-29 02:48 | 16.92608 | -3.63140 | 36897 ft | 487 kts | 161° |
| 2026-04-29 02:49 | 16.86425 | -3.60210 | 36896 ft | 486 kts | 161° |
| 2026-04-29 02:49 | 16.80264 | -3.57294 | 36894 ft | 486 kts | 161° |
| 2026-04-29 02:50 | 16.74101 | -3.54380 | 36894 ft | 487 kts | 161° |
| 2026-04-29 02:50 | 16.67889 | -3.51442 | 36895 ft | 487 kts | 161° |
| 2026-04-29 02:51 | 16.61707 | -3.48521 | 36894 ft | 488 kts | 161° |
| 2026-04-29 02:51 | 16.55531 | -3.45602 | 36893 ft | 487 kts | 161° |
| 2026-04-29 02:52 | 16.49356 | -3.42686 | 36888 ft | 486 kts | 161° |
| 2026-04-29 02:52 | 16.43182 | -3.39774 | 36885 ft | 486 kts | 161° |
| 2026-04-29 02:53 | 16.36976 | -3.36856 | 36885 ft | 487 kts | 161° |
| 2026-04-29 02:53 | 16.30806 | -3.33957 | 36880 ft | 485 kts | 161° |
| 2026-04-29 02:54 | 16.24636 | -3.31059 | 36881 ft | 486 kts | 161° |
| 2026-04-29 02:54 | 16.18461 | -3.28155 | 36878 ft | 486 kts | 161° |
| 2026-04-29 02:55 | 16.12312 | -3.25267 | 36876 ft | 486 kts | 161° |
| 2026-04-29 02:55 | 16.06097 | -3.22349 | 36878 ft | 485 kts | 161° |
| 2026-04-29 02:56 | 15.99945 | -3.19461 | 36878 ft | 485 kts | 160° |
| 2026-04-29 02:56 | 15.93776 | -3.16569 | 36881 ft | 484 kts | 161° |
| 2026-04-29 02:57 | 15.87607 | -3.13678 | 36881 ft | 484 kts | 160° |
| 2026-04-29 02:57 | 15.81477 | -3.10806 | 36882 ft | 485 kts | 161° |
| 2026-04-29 02:58 | 15.75316 | -3.07923 | 36883 ft | 485 kts | 161° |
| 2026-04-29 02:58 | 15.69110 | -3.05021 | 36883 ft | 486 kts | 160° |
| 2026-04-29 02:59 | 15.62958 | -3.02147 | 36885 ft | 485 kts | 160° |
| 2026-04-29 02:59 | 15.56763 | -2.99254 | 36887 ft | 485 kts | 160° |
| 2026-04-29 03:00 | 15.50605 | -2.96379 | 36886 ft | 484 kts | 160° |
| 2026-04-29 03:00 | 15.44454 | -2.93509 | 36875 ft | 484 kts | 160° |
| 2026-04-29 03:01 | 15.38296 | -2.90638 | 36878 ft | 484 kts | 160° |
| 2026-04-29 03:01 | 15.32144 | -2.87772 | 36891 ft | 484 kts | 160° |
| 2026-04-29 03:02 | 15.26003 | -2.84912 | 36898 ft | 484 kts | 160° |
| 2026-04-29 03:02 | 15.19831 | -2.82038 | 36906 ft | 484 kts | 160° |
| 2026-04-29 03:03 | 15.13692 | -2.79179 | 36917 ft | 484 kts | 160° |
| 2026-04-29 03:03 | 15.07533 | -2.76318 | 36928 ft | 484 kts | 160° |
| 2026-04-29 03:04 | 15.01370 | -2.73467 | 36929 ft | 483 kts | 160° |
| 2026-04-29 03:04 | 14.95244 | -2.70631 | 36928 ft | 483 kts | 160° |
| 2026-04-29 03:05 | 14.89078 | -2.67775 | 36930 ft | 483 kts | 160° |
| 2026-04-29 03:05 | 14.82953 | -2.64940 | 36929 ft | 483 kts | 160° |
| 2026-04-29 03:06 | 14.76816 | -2.62099 | 36927 ft | 482 kts | 160° |
| 2026-04-29 03:06 | 14.70652 | -2.59247 | 36928 ft | 482 kts | 160° |
| 2026-04-29 03:07 | 14.64553 | -2.56427 | 36930 ft | 482 kts | 160° |
| 2026-04-29 03:07 | 14.58402 | -2.53585 | 36930 ft | 481 kts | 160° |
| 2026-04-29 03:08 | 14.52297 | -2.50764 | 36922 ft | 481 kts | 159° |
| 2026-04-29 03:08 | 14.46172 | -2.47935 | 36917 ft | 481 kts | 159° |
| 2026-04-29 03:09 | 14.40028 | -2.45099 | 36917 ft | 480 kts | 159° |
| 2026-04-29 03:09 | 14.33930 | -2.42296 | 36919 ft | 480 kts | 159° |
| 2026-04-29 03:10 | 14.27831 | -2.39492 | 36923 ft | 479 kts | 159° |
| 2026-04-29 03:10 | 14.21734 | -2.36686 | 36924 ft | 479 kts | 159° |
| 2026-04-29 03:11 | 14.15605 | -2.33868 | 36924 ft | 480 kts | 159° |
| 2026-04-29 03:11 | 14.09505 | -2.31062 | 36928 ft | 480 kts | 159° |
| 2026-04-29 03:12 | 14.03383 | -2.28249 | 36932 ft | 480 kts | 159° |
| 2026-04-29 03:12 | 13.97287 | -2.25450 | 36933 ft | 479 kts | 159° |
| 2026-04-29 03:13 | 13.91170 | -2.22642 | 36934 ft | 479 kts | 159° |
| 2026-04-29 03:13 | 13.85067 | -2.19841 | 36934 ft | 479 kts | 159° |
| 2026-04-29 03:14 | 13.78963 | -2.17041 | 36937 ft | 479 kts | 159° |
| 2026-04-29 03:14 | 13.72879 | -2.14253 | 36940 ft | 479 kts | 159° |
| 2026-04-29 03:15 | 13.66781 | -2.11460 | 36940 ft | 479 kts | 159° |
| 2026-04-29 03:15 | 13.60658 | -2.08656 | 36943 ft | 479 kts | 159° |
| 2026-04-29 03:16 | 13.54561 | -2.05867 | 36949 ft | 479 kts | 159° |
| 2026-04-29 03:16 | 13.48483 | -2.03088 | 36955 ft | 479 kts | 159° |
| 2026-04-29 03:17 | 13.42389 | -2.00301 | 36957 ft | 479 kts | 159° |
| 2026-04-29 03:17 | 13.36255 | -1.97499 | 36957 ft | 479 kts | 158° |
| 2026-04-29 03:18 | 13.30171 | -1.94720 | 36962 ft | 478 kts | 158° |
| 2026-04-29 03:18 | 13.24099 | -1.91945 | 36966 ft | 478 kts | 158° |
| 2026-04-29 03:19 | 13.17984 | -1.89154 | 36969 ft | 478 kts | 158° |
| 2026-04-29 03:19 | 13.11919 | -1.86395 | 36976 ft | 478 kts | 158° |
| 2026-04-29 03:20 | 13.05797 | -1.83613 | 36974 ft | 477 kts | 158° |
| 2026-04-29 03:20 | 12.99743 | -1.80859 | 36973 ft | 476 kts | 158° |
| 2026-04-29 03:21 | 12.93677 | -1.78098 | 36964 ft | 476 kts | 158° |
| 2026-04-29 03:21 | 12.87616 | -1.75340 | 36962 ft | 477 kts | 158° |
| 2026-04-29 03:22 | 12.81500 | -1.72560 | 36962 ft | 477 kts | 158° |
| 2026-04-29 03:22 | 12.75437 | -1.69804 | 36958 ft | 478 kts | 158° |
| 2026-04-29 03:23 | 12.69332 | -1.67032 | 36949 ft | 477 kts | 158° |
| 2026-04-29 03:23 | 12.63236 | -1.64265 | 36952 ft | 478 kts | 157° |
| 2026-04-29 03:24 | 12.57152 | -1.61503 | 36945 ft | 479 kts | 157° |
| 2026-04-29 03:24 | 12.51036 | -1.58728 | 36950 ft | 479 kts | 157° |
| 2026-04-29 03:25 | 12.44946 | -1.55965 | 36950 ft | 478 kts | 157° |
| 2026-04-29 03:25 | 12.38817 | -1.53187 | 36955 ft | 478 kts | 157° |
| 2026-04-29 03:26 | 12.32739 | -1.50428 | 36950 ft | 479 kts | 157° |
| 2026-04-29 03:26 | 12.26631 | -1.47617 | 36951 ft | 479 kts | 156° |
| 2026-04-29 03:27 | 12.20546 | -1.44811 | 36952 ft | 480 kts | 156° |
| 2026-04-29 03:27 | 12.14436 | -1.41994 | 36952 ft | 481 kts | 156° |
| 2026-04-29 03:28 | 12.08329 | -1.39182 | 36947 ft | 480 kts | 156° |
| 2026-04-29 03:28 | 12.02225 | -1.36373 | 36951 ft | 480 kts | 156° |
| 2026-04-29 03:29 | 11.96160 | -1.33581 | 36943 ft | 479 kts | 157° |
| 2026-04-29 03:29 | 11.90052 | -1.30772 | 36951 ft | 480 kts | 157° |
| 2026-04-29 03:30 | 11.83939 | -1.27962 | 36948 ft | 480 kts | 157° |
| 2026-04-29 03:30 | 11.77840 | -1.25161 | 36949 ft | 480 kts | 157° |
| 2026-04-29 03:31 | 11.68684 | -1.20957 | 36941 ft | 480 kts | 156° |
| 2026-04-29 03:31 | 11.62557 | -1.18145 | 36940 ft | 480 kts | 156° |
| 2026-04-29 03:32 | 11.56504 | -1.15369 | 36942 ft | 479 kts | 156° |
| 2026-04-29 03:32 | 11.50397 | -1.12569 | 36940 ft | 479 kts | 156° |
| 2026-04-29 03:33 | 11.44312 | -1.09779 | 36939 ft | 478 kts | 156° |
| 2026-04-29 03:33 | 11.38244 | -1.07002 | 36938 ft | 478 kts | 157° |
| 2026-04-29 03:34 | 11.32143 | -1.04210 | 36938 ft | 478 kts | 156° |
| 2026-04-29 03:34 | 11.26079 | -1.01435 | 36934 ft | 478 kts | 157° |
| 2026-04-29 03:35 | 11.20005 | -0.98657 | 36927 ft | 478 kts | 156° |
| 2026-04-29 03:35 | 11.13924 | -0.95875 | 36927 ft | 478 kts | 156° |
| 2026-04-29 03:36 | 11.07856 | -0.93098 | 36924 ft | 478 kts | 156° |
| 2026-04-29 03:36 | 11.01757 | -0.90310 | 36928 ft | 478 kts | 156° |
| 2026-04-29 03:37 | 10.95752 | -0.87320 | 36923 ft | 477 kts | 153° |
| 2026-04-29 03:37 | 10.89860 | -0.84253 | 36920 ft | 478 kts | 153° |
| 2026-04-29 03:38 | 10.83920 | -0.81163 | 36912 ft | 477 kts | 153° |
| 2026-04-29 03:38 | 10.78005 | -0.78087 | 36906 ft | 478 kts | 153° |
| 2026-04-29 03:39 | 10.72053 | -0.74995 | 36910 ft | 478 kts | 153° |
| 2026-04-29 03:39 | 10.66136 | -0.71927 | 36912 ft | 477 kts | 153° |
| 2026-04-29 03:40 | 10.60232 | -0.68863 | 36915 ft | 477 kts | 154° |
| 2026-04-29 03:40 | 10.54315 | -0.65793 | 36912 ft | 476 kts | 153° |
| 2026-04-29 03:41 | 10.48393 | -0.62721 | 36914 ft | 476 kts | 153° |
| 2026-04-29 03:41 | 10.42473 | -0.59652 | 36913 ft | 476 kts | 153° |
| 2026-04-29 03:42 | 10.36547 | -0.56582 | 36906 ft | 476 kts | 153° |
| 2026-04-29 03:42 | 10.30655 | -0.53529 | 36900 ft | 476 kts | 153° |
| 2026-04-29 03:43 | 10.24719 | -0.50454 | 36890 ft | 476 kts | 153° |
| 2026-04-29 03:43 | 10.18820 | -0.47397 | 36890 ft | 475 kts | 153° |
| 2026-04-29 03:44 | 10.12942 | -0.44352 | 36886 ft | 475 kts | 153° |
| 2026-04-29 03:44 | 10.07006 | -0.41391 | 36886 ft | 475 kts | 155° |
| 2026-04-29 03:45 | 10.01005 | -0.38562 | 36891 ft | 474 kts | 155° |
| 2026-04-29 03:45 | 9.95006 | -0.35710 | 36891 ft | 474 kts | 155° |
| 2026-04-29 03:46 | 9.89012 | -0.32849 | 36893 ft | 475 kts | 155° |
| 2026-04-29 03:46 | 9.83002 | -0.29989 | 36895 ft | 475 kts | 155° |
| 2026-04-29 03:47 | 9.77006 | -0.27133 | 36898 ft | 475 kts | 155° |
| 2026-04-29 03:47 | 9.71041 | -0.24289 | 36898 ft | 475 kts | 155° |
| 2026-04-29 03:48 | 9.65039 | -0.21426 | 36899 ft | 475 kts | 155° |
| 2026-04-29 03:48 | 9.59036 | -0.18562 | 36898 ft | 475 kts | 155° |
| 2026-04-29 03:49 | 9.53054 | -0.15712 | 36896 ft | 475 kts | 155° |
| 2026-04-29 03:49 | 9.47030 | -0.12852 | 36897 ft | 476 kts | 155° |
| 2026-04-29 03:50 | 9.41025 | -0.10000 | 36895 ft | 476 kts | 155° |
| 2026-04-29 03:50 | 9.35014 | -0.07137 | 36895 ft | 476 kts | 155° |
| 2026-04-29 03:51 | 9.29034 | -0.04290 | 36893 ft | 475 kts | 154° |
| 2026-04-29 03:51 | 9.23056 | -0.01446 | 36889 ft | 475 kts | 154° |
| 2026-04-29 03:52 | 9.17056 | 0.01398 | 36889 ft | 475 kts | 154° |
| 2026-04-29 03:52 | 9.11064 | 0.04238 | 36889 ft | 474 kts | 154° |
| 2026-04-29 03:53 | 9.05061 | 0.07086 | 36886 ft | 474 kts | 154° |
| 2026-04-29 03:53 | 8.99090 | 0.09923 | 36883 ft | 474 kts | 154° |
| 2026-04-29 03:54 | 8.93114 | 0.12761 | 36883 ft | 473 kts | 154° |
| 2026-04-29 03:54 | 8.87138 | 0.15598 | 36882 ft | 474 kts | 154° |
| 2026-04-29 03:55 | 8.81137 | 0.18447 | 36880 ft | 474 kts | 154° |
| 2026-04-29 03:55 | 8.75158 | 0.21281 | 36876 ft | 475 kts | 154° |
| 2026-04-29 03:56 | 8.69190 | 0.24112 | 36879 ft | 475 kts | 154° |
| 2026-04-29 03:56 | 8.63205 | 0.26948 | 36884 ft | 474 kts | 154° |
| 2026-04-29 03:57 | 8.57196 | 0.29795 | 36886 ft | 475 kts | 154° |
| 2026-04-29 03:57 | 8.51215 | 0.32630 | 36890 ft | 475 kts | 154° |
| 2026-04-29 03:58 | 8.45198 | 0.35480 | 36890 ft | 475 kts | 154° |
| 2026-04-29 03:58 | 8.39185 | 0.38326 | 36889 ft | 476 kts | 154° |
| 2026-04-29 03:59 | 8.33220 | 0.41148 | 36890 ft | 476 kts | 154° |
| 2026-04-29 03:59 | 8.27173 | 0.44009 | 36887 ft | 476 kts | 154° |
| 2026-04-29 04:00 | 8.21186 | 0.46843 | 36888 ft | 476 kts | 154° |
| 2026-04-29 04:00 | 8.15161 | 0.49695 | 36895 ft | 476 kts | 154° |
| 2026-04-29 04:01 | 8.09182 | 0.52526 | 36901 ft | 475 kts | 154° |
| 2026-04-29 04:01 | 8.03171 | 0.55362 | 36911 ft | 476 kts | 155° |
| 2026-04-29 04:02 | 7.96981 | 0.57841 | 36918 ft | 477 kts | 159° |
| 2026-04-29 04:02 | 7.90755 | 0.60144 | 36913 ft | 477 kts | 159° |
| 2026-04-29 04:03 | 7.84472 | 0.62471 | 36916 ft | 477 kts | 159° |
| 2026-04-29 04:03 | 7.78244 | 0.64780 | 36913 ft | 476 kts | 159° |
| 2026-04-29 04:04 | 7.72022 | 0.67087 | 36919 ft | 476 kts | 159° |
| 2026-04-29 04:04 | 7.65753 | 0.69413 | 36931 ft | 477 kts | 159° |
| 2026-04-29 04:05 | 7.59534 | 0.71719 | 36944 ft | 477 kts | 159° |
| 2026-04-29 04:05 | 7.53308 | 0.74025 | 36950 ft | 477 kts | 159° |
| 2026-04-29 04:06 | 7.47045 | 0.76346 | 36957 ft | 476 kts | 159° |
| 2026-04-29 04:06 | 7.40850 | 0.78640 | 36956 ft | 476 kts | 159° |
| 2026-04-29 04:07 | 7.34592 | 0.80959 | 36954 ft | 475 kts | 159° |
| 2026-04-29 04:07 | 7.28359 | 0.83267 | 36952 ft | 475 kts | 159° |
| 2026-04-29 04:08 | 7.22178 | 0.85555 | 36948 ft | 475 kts | 159° |
| 2026-04-29 04:08 | 7.15944 | 0.87860 | 36931 ft | 476 kts | 159° |
| 2026-04-29 04:09 | 7.09701 | 0.90170 | 36911 ft | 475 kts | 159° |
| 2026-04-29 04:09 | 7.03504 | 0.92462 | 36897 ft | 475 kts | 159° |
| 2026-04-29 04:10 | 6.97294 | 0.94758 | 36892 ft | 473 kts | 158° |
| 2026-04-29 04:10 | 6.91086 | 0.97052 | 36887 ft | 474 kts | 159° |
| 2026-04-29 04:11 | 6.84863 | 0.99354 | 36886 ft | 475 kts | 159° |
| 2026-04-29 04:11 | 6.78666 | 1.01643 | 36880 ft | 475 kts | 159° |
| 2026-04-29 04:12 | 6.72434 | 1.03946 | 36882 ft | 474 kts | 159° |
| 2026-04-29 04:12 | 6.66255 | 1.06231 | 36879 ft | 474 kts | 158° |
| 2026-04-29 04:13 | 6.60062 | 1.08517 | 36880 ft | 474 kts | 158° |
| 2026-04-29 04:13 | 6.53944 | 1.11073 | 36881 ft | 473 kts | 155° |
| 2026-04-29 04:14 | 6.47931 | 1.13747 | 36876 ft | 474 kts | 154° |
| 2026-04-29 04:14 | 6.41867 | 1.16447 | 36877 ft | 473 kts | 154° |
| 2026-04-29 04:15 | 6.35837 | 1.19129 | 36879 ft | 473 kts | 154° |
| 2026-04-29 04:15 | 6.29838 | 1.21797 | 36883 ft | 473 kts | 154° |
| 2026-04-29 04:16 | 6.23801 | 1.24520 | 36885 ft | 472 kts | 152° |
| 2026-04-29 04:16 | 6.18042 | 1.27712 | 36882 ft | 471 kts | 146° |
| 2026-04-29 04:17 | 6.12716 | 1.31483 | 36881 ft | 470 kts | 140° |
| 2026-04-29 04:17 | 6.07608 | 1.35651 | 36880 ft | 470 kts | 139° |
| 2026-04-29 04:18 | 6.02552 | 1.39800 | 36870 ft | 470 kts | 139° |
| 2026-04-29 04:18 | 5.97506 | 1.43933 | 36862 ft | 469 kts | 139° |
| 2026-04-29 04:19 | 5.92422 | 1.48092 | 36852 ft | 468 kts | 139° |
| 2026-04-29 04:19 | 5.87379 | 1.52214 | 36855 ft | 469 kts | 139° |
| 2026-04-29 04:20 | 5.82286 | 1.56376 | 36856 ft | 470 kts | 139° |
| 2026-04-29 04:20 | 5.77224 | 1.60510 | 36857 ft | 470 kts | 139° |
| 2026-04-29 04:21 | 5.72129 | 1.64672 | 36856 ft | 470 kts | 139° |
| 2026-04-29 04:21 | 5.67058 | 1.68815 | 36858 ft | 469 kts | 139° |
| 2026-04-29 04:22 | 5.62012 | 1.72940 | 36862 ft | 469 kts | 139° |
| 2026-04-29 04:22 | 5.56931 | 1.77091 | 36866 ft | 471 kts | 139° |
| 2026-04-29 04:23 | 5.51801 | 1.81276 | 36868 ft | 475 kts | 139° |
| 2026-04-29 04:23 | 5.46642 | 1.85445 | 36863 ft | 475 kts | 139° |
| 2026-04-29 04:24 | 5.41510 | 1.89592 | 36862 ft | 476 kts | 139° |
| 2026-04-29 04:24 | 5.36346 | 1.93767 | 36862 ft | 476 kts | 139° |
| 2026-04-29 04:25 | 5.31184 | 1.97944 | 36858 ft | 477 kts | 139° |
| 2026-04-29 04:25 | 5.26011 | 2.02133 | 36856 ft | 476 kts | 139° |
| 2026-04-29 04:26 | 5.20838 | 2.06320 | 36855 ft | 476 kts | 139° |
| 2026-04-29 04:26 | 5.15674 | 2.10498 | 36855 ft | 477 kts | 139° |
| 2026-04-29 04:27 | 5.10509 | 2.14680 | 36852 ft | 477 kts | 139° |
| 2026-04-29 04:27 | 5.05302 | 2.18892 | 36849 ft | 478 kts | 139° |
| 2026-04-29 04:28 | 5.00123 | 2.23066 | 36848 ft | 478 kts | 139° |
| 2026-04-29 04:28 | 4.94931 | 2.27249 | 36849 ft | 477 kts | 139° |
| 2026-04-29 04:29 | 4.89772 | 2.31410 | 36849 ft | 476 kts | 139° |
| 2026-04-29 04:29 | 4.84611 | 2.35573 | 36850 ft | 476 kts | 139° |
| 2026-04-29 04:30 | 4.79440 | 2.39746 | 36851 ft | 476 kts | 139° |
| 2026-04-29 04:31 | 4.71678 | 2.46006 | 36851 ft | 476 kts | 139° |
| 2026-04-29 04:31 | 4.66498 | 2.50184 | 36851 ft | 476 kts | 139° |
| 2026-04-29 04:32 | 4.61361 | 2.54329 | 36855 ft | 475 kts | 139° |
| 2026-04-29 04:32 | 4.56226 | 2.58470 | 36857 ft | 474 kts | 139° |
| 2026-04-29 04:33 | 4.51089 | 2.62611 | 36858 ft | 474 kts | 139° |
| 2026-04-29 04:33 | 4.45946 | 2.66754 | 36860 ft | 473 kts | 139° |
| 2026-04-29 04:34 | 4.40811 | 2.70890 | 36863 ft | 472 kts | 139° |
| 2026-04-29 04:34 | 4.35663 | 2.75038 | 36864 ft | 472 kts | 139° |
| 2026-04-29 04:35 | 4.30528 | 2.79175 | 36862 ft | 471 kts | 139° |
| 2026-04-29 04:35 | 4.25451 | 2.83265 | 36865 ft | 470 kts | 139° |
| 2026-04-29 04:36 | 4.20346 | 2.87376 | 36866 ft | 470 kts | 139° |
| 2026-04-29 04:36 | 4.15246 | 2.91484 | 36868 ft | 469 kts | 139° |
| 2026-04-29 04:37 | 4.10133 | 2.95601 | 36867 ft | 468 kts | 139° |
| 2026-04-29 04:37 | 4.05056 | 2.99693 | 36870 ft | 467 kts | 139° |
| 2026-04-29 04:38 | 3.99986 | 3.03775 | 36868 ft | 468 kts | 139° |
| 2026-04-29 04:38 | 3.94893 | 3.07886 | 36872 ft | 467 kts | 139° |
| 2026-04-29 04:39 | 3.89838 | 3.11978 | 36872 ft | 467 kts | 139° |
| 2026-04-29 04:39 | 3.84771 | 3.16082 | 36870 ft | 467 kts | 139° |
| 2026-04-29 04:40 | 3.79721 | 3.20174 | 36872 ft | 467 kts | 139° |
| 2026-04-29 04:40 | 3.74662 | 3.24268 | 36868 ft | 466 kts | 139° |
| 2026-04-29 04:41 | 3.69606 | 3.28362 | 36871 ft | 466 kts | 139° |
| 2026-04-29 04:41 | 3.64571 | 3.32441 | 36870 ft | 466 kts | 139° |
| 2026-04-29 04:42 | 3.59523 | 3.36530 | 36871 ft | 466 kts | 139° |
| 2026-04-29 04:42 | 3.54483 | 3.40611 | 36871 ft | 467 kts | 139° |
| 2026-04-29 04:43 | 3.49411 | 3.44714 | 36873 ft | 466 kts | 139° |
| 2026-04-29 04:43 | 3.44368 | 3.48796 | 36869 ft | 465 kts | 139° |
| 2026-04-29 04:44 | 3.39338 | 3.52866 | 36871 ft | 465 kts | 139° |
| 2026-04-29 04:44 | 3.34308 | 3.56936 | 36872 ft | 465 kts | 139° |
| 2026-04-29 04:45 | 3.29261 | 3.61021 | 36871 ft | 465 kts | 139° |
| 2026-04-29 04:45 | 3.24199 | 3.65116 | 36874 ft | 465 kts | 139° |
| 2026-04-29 04:46 | 3.19171 | 3.69181 | 36873 ft | 464 kts | 139° |
| 2026-04-29 04:46 | 3.14153 | 3.73240 | 36879 ft | 464 kts | 139° |
| 2026-04-29 04:47 | 3.09135 | 3.77298 | 36886 ft | 463 kts | 139° |
| 2026-04-29 04:47 | 3.04136 | 3.81339 | 36890 ft | 462 kts | 139° |
| 2026-04-29 04:48 | 2.99123 | 3.85393 | 36890 ft | 462 kts | 139° |
| 2026-04-29 04:48 | 2.94127 | 3.89430 | 36893 ft | 462 kts | 139° |
| 2026-04-29 04:49 | 2.89128 | 3.93471 | 36893 ft | 461 kts | 139° |
| 2026-04-29 04:49 | 2.84127 | 3.97513 | 36892 ft | 461 kts | 139° |
| 2026-04-29 04:50 | 2.79123 | 4.01557 | 36891 ft | 461 kts | 139° |
| 2026-04-29 04:50 | 2.74130 | 4.05590 | 36891 ft | 461 kts | 139° |
| 2026-04-29 04:51 | 2.69129 | 4.09631 | 36890 ft | 461 kts | 139° |
| 2026-04-29 04:51 | 2.64119 | 4.13680 | 36892 ft | 462 kts | 139° |
| 2026-04-29 04:52 | 2.59105 | 4.17728 | 36891 ft | 461 kts | 139° |
| 2026-04-29 04:52 | 2.54108 | 4.21762 | 36893 ft | 462 kts | 139° |
| 2026-04-29 04:53 | 2.49108 | 4.25800 | 36890 ft | 462 kts | 139° |
| 2026-04-29 04:53 | 2.44071 | 4.29865 | 36890 ft | 462 kts | 139° |
| 2026-04-29 04:54 | 2.39085 | 4.33889 | 36886 ft | 462 kts | 139° |
| 2026-04-29 04:54 | 2.34062 | 4.37946 | 36888 ft | 463 kts | 139° |
| 2026-04-29 04:55 | 2.29029 | 4.42010 | 36887 ft | 463 kts | 139° |
| 2026-04-29 04:55 | 2.24008 | 4.46063 | 36883 ft | 463 kts | 139° |
| 2026-04-29 04:56 | 2.18974 | 4.50126 | 36874 ft | 463 kts | 139° |
| 2026-04-29 04:56 | 2.13945 | 4.54184 | 36871 ft | 464 kts | 139° |
| 2026-04-29 04:57 | 2.08923 | 4.58237 | 36871 ft | 465 kts | 139° |
| 2026-04-29 04:57 | 2.03885 | 4.62301 | 36875 ft | 464 kts | 139° |
| 2026-04-29 04:58 | 1.98858 | 4.66360 | 36879 ft | 465 kts | 139° |
| 2026-04-29 04:58 | 1.93808 | 4.70432 | 36884 ft | 465 kts | 139° |
| 2026-04-29 04:59 | 1.88781 | 4.74485 | 36888 ft | 465 kts | 139° |
| 2026-04-29 04:59 | 1.83737 | 4.78556 | 36888 ft | 466 kts | 139° |
| 2026-04-29 05:00 | 1.78686 | 4.82631 | 36888 ft | 466 kts | 139° |
| 2026-04-29 05:00 | 1.73626 | 4.86712 | 36889 ft | 465 kts | 139° |
| 2026-04-29 05:01 | 1.68578 | 4.90783 | 36887 ft | 466 kts | 139° |
| 2026-04-29 05:01 | 1.63546 | 4.94839 | 36888 ft | 466 kts | 139° |
| 2026-04-29 05:02 | 1.58487 | 4.98919 | 36886 ft | 466 kts | 138° |
| 2026-04-29 05:02 | 1.53437 | 5.02991 | 36887 ft | 466 kts | 138° |
| 2026-04-29 05:03 | 1.48382 | 5.07068 | 36888 ft | 465 kts | 138° |
| 2026-04-29 05:03 | 1.43351 | 5.11125 | 36891 ft | 465 kts | 139° |
| 2026-04-29 05:04 | 1.38312 | 5.15187 | 36888 ft | 465 kts | 138° |
| 2026-04-29 05:04 | 1.33265 | 5.19256 | 36887 ft | 465 kts | 139° |
| 2026-04-29 05:05 | 1.28241 | 5.23307 | 36889 ft | 464 kts | 139° |
| 2026-04-29 05:05 | 1.23175 | 5.27391 | 36889 ft | 465 kts | 139° |
| 2026-04-29 05:06 | 1.18141 | 5.31449 | 36889 ft | 465 kts | 139° |
| 2026-04-29 05:06 | 1.13123 | 5.35499 | 36889 ft | 465 kts | 139° |
| 2026-04-29 05:07 | 1.08078 | 5.39569 | 36887 ft | 464 kts | 139° |
| 2026-04-29 05:07 | 1.03043 | 5.43630 | 36888 ft | 463 kts | 139° |
| 2026-04-29 05:08 | 0.98250 | 5.47896 | 36888 ft | 462 kts | 132° |
| 2026-04-29 05:08 | 0.94106 | 5.52765 | 36891 ft | 460 kts | 124° |
| 2026-04-29 05:09 | 0.90692 | 5.58180 | 36891 ft | 459 kts | 116° |
| 2026-04-29 05:09 | 0.87947 | 5.63887 | 36893 ft | 458 kts | 113° |
| 2026-04-29 05:10 | 0.85269 | 5.69681 | 36892 ft | 457 kts | 113° |
| 2026-04-29 05:10 | 0.82617 | 5.75404 | 36891 ft | 457 kts | 113° |
| 2026-04-29 05:11 | 0.79941 | 5.81165 | 36891 ft | 457 kts | 113° |
| 2026-04-29 05:11 | 0.77261 | 5.86927 | 36892 ft | 455 kts | 113° |
| 2026-04-29 05:12 | 0.74596 | 5.92659 | 36893 ft | 456 kts | 113° |
| 2026-04-29 05:12 | 0.71924 | 5.98402 | 36896 ft | 456 kts | 113° |
| 2026-04-29 05:13 | 0.69246 | 6.04156 | 36904 ft | 456 kts | 113° |
| 2026-04-29 05:13 | 0.66583 | 6.09879 | 36909 ft | 456 kts | 113° |
| 2026-04-29 05:14 | 0.63915 | 6.15612 | 36907 ft | 455 kts | 113° |
| 2026-04-29 05:14 | 0.61244 | 6.21351 | 36909 ft | 454 kts | 113° |
| 2026-04-29 05:15 | 0.58585 | 6.27067 | 36909 ft | 454 kts | 113° |
| 2026-04-29 05:15 | 0.55925 | 6.32784 | 36907 ft | 454 kts | 113° |
| 2026-04-29 05:16 | 0.53271 | 6.38489 | 36910 ft | 454 kts | 113° |
| 2026-04-29 05:16 | 0.50629 | 6.44169 | 36909 ft | 453 kts | 113° |
| 2026-04-29 05:17 | 0.47981 | 6.49871 | 36911 ft | 453 kts | 113° |
| 2026-04-29 05:17 | 0.45322 | 6.55592 | 36915 ft | 452 kts | 113° |
| 2026-04-29 05:18 | 0.42689 | 6.61257 | 36918 ft | 453 kts | 113° |
| 2026-04-29 05:18 | 0.39698 | 6.66800 | 36927 ft | 454 kts | 121° |
| 2026-04-29 05:19 | 0.35880 | 6.71812 | 36933 ft | 456 kts | 130° |
| 2026-04-29 05:19 | 0.31284 | 6.76192 | 36923 ft | 458 kts | 139° |
| 2026-04-29 05:20 | 0.26105 | 6.79977 | 36929 ft | 459 kts | 142° |
| 2026-04-29 05:20 | 0.20902 | 6.83627 | 36929 ft | 458 kts | 142° |
| 2026-04-29 05:21 | 0.15674 | 6.87305 | 36922 ft | 459 kts | 142° |
| 2026-04-29 05:21 | 0.10446 | 6.90983 | 36919 ft | 459 kts | 142° |
| 2026-04-29 05:22 | 0.05215 | 6.94671 | 36912 ft | 459 kts | 142° |
| 2026-04-29 05:22 | -0.00025 | 6.98369 | 36911 ft | 459 kts | 142° |
| 2026-04-29 05:23 | -0.05264 | 7.02059 | 36909 ft | 460 kts | 142° |
| 2026-04-29 05:23 | -0.10515 | 7.05760 | 36909 ft | 460 kts | 142° |
| 2026-04-29 05:24 | -0.15746 | 7.09448 | 36909 ft | 460 kts | 142° |
| 2026-04-29 05:24 | -0.20975 | 7.13136 | 36908 ft | 460 kts | 142° |
| 2026-04-29 05:25 | -0.26218 | 7.16836 | 36910 ft | 460 kts | 142° |
| 2026-04-29 05:25 | -0.31442 | 7.20523 | 36906 ft | 460 kts | 142° |
| 2026-04-29 05:26 | -0.36678 | 7.24220 | 36908 ft | 459 kts | 142° |
| 2026-04-29 05:26 | -0.41902 | 7.27905 | 36905 ft | 459 kts | 142° |
| 2026-04-29 05:27 | -0.47123 | 7.31581 | 36898 ft | 459 kts | 142° |
| 2026-04-29 05:27 | -0.54973 | 7.37115 | 36902 ft | 459 kts | 142° |
| 2026-04-29 05:28 | -0.60179 | 7.40791 | 36907 ft | 459 kts | 142° |
| 2026-04-29 05:28 | -0.65422 | 7.44499 | 36909 ft | 459 kts | 142° |
| 2026-04-29 05:29 | -0.70638 | 7.48183 | 36909 ft | 458 kts | 142° |
| 2026-04-29 05:29 | -0.75838 | 7.51842 | 36910 ft | 458 kts | 142° |
| 2026-04-29 05:30 | -0.81075 | 7.55517 | 36910 ft | 458 kts | 142° |
| 2026-04-29 05:30 | -0.86282 | 7.59182 | 36910 ft | 457 kts | 142° |
| 2026-04-29 05:31 | -0.91470 | 7.62842 | 36910 ft | 457 kts | 142° |
| 2026-04-29 05:31 | -0.96649 | 7.66503 | 36911 ft | 456 kts | 142° |
| 2026-04-29 05:32 | -1.01860 | 7.70184 | 36912 ft | 456 kts | 142° |
| 2026-04-29 05:32 | -1.07041 | 7.73837 | 36914 ft | 456 kts | 142° |
| 2026-04-29 05:33 | -1.12244 | 7.77512 | 36910 ft | 457 kts | 142° |
| 2026-04-29 05:33 | -1.17433 | 7.81184 | 36911 ft | 457 kts | 142° |
| 2026-04-29 05:34 | -1.22624 | 7.84858 | 36912 ft | 457 kts | 142° |
| 2026-04-29 05:34 | -1.27816 | 7.88537 | 36911 ft | 457 kts | 142° |
| 2026-04-29 05:35 | -1.32989 | 7.92202 | 36912 ft | 457 kts | 142° |
| 2026-04-29 05:35 | -1.38189 | 7.95862 | 36912 ft | 457 kts | 143° |
| 2026-04-29 05:36 | -1.43425 | 7.99536 | 36913 ft | 458 kts | 143° |
| 2026-04-29 05:36 | -1.48636 | 8.03198 | 36913 ft | 458 kts | 142° |
| 2026-04-29 05:37 | -1.53855 | 8.06872 | 36910 ft | 458 kts | 142° |
| 2026-04-29 05:37 | -1.59075 | 8.10548 | 36913 ft | 458 kts | 142° |
| 2026-04-29 05:38 | -1.64303 | 8.14232 | 36912 ft | 459 kts | 142° |
| 2026-04-29 05:38 | -1.69521 | 8.17908 | 36914 ft | 459 kts | 142° |
| 2026-04-29 05:39 | -1.74732 | 8.21576 | 36912 ft | 460 kts | 142° |
| 2026-04-29 05:39 | -1.79975 | 8.25269 | 36912 ft | 460 kts | 142° |
| 2026-04-29 05:40 | -1.85233 | 8.28979 | 36912 ft | 461 kts | 142° |
| 2026-04-29 05:40 | -1.90474 | 8.32681 | 36911 ft | 461 kts | 142° |
| 2026-04-29 05:41 | -1.95710 | 8.36382 | 36913 ft | 462 kts | 142° |
| 2026-04-29 05:41 | -2.00955 | 8.40091 | 36912 ft | 462 kts | 142° |
| 2026-04-29 05:42 | -2.06229 | 8.43821 | 36914 ft | 462 kts | 142° |
| 2026-04-29 05:42 | -2.11491 | 8.47530 | 36921 ft | 462 kts | 142° |
| 2026-04-29 05:43 | -2.16711 | 8.51206 | 36928 ft | 462 kts | 142° |
| 2026-04-29 05:43 | -2.21992 | 8.54931 | 36930 ft | 461 kts | 142° |
| 2026-04-29 05:44 | -2.27233 | 8.58631 | 36931 ft | 461 kts | 142° |
| 2026-04-29 05:44 | -2.32468 | 8.62330 | 36931 ft | 461 kts | 142° |
| 2026-04-29 05:45 | -2.37709 | 8.66033 | 36932 ft | 461 kts | 142° |
| 2026-04-29 05:45 | -2.42951 | 8.69735 | 36931 ft | 461 kts | 142° |
| 2026-04-29 05:46 | -2.48222 | 8.73462 | 36931 ft | 462 kts | 142° |
| 2026-04-29 05:46 | -2.53452 | 8.77160 | 36930 ft | 462 kts | 142° |
| 2026-04-29 05:47 | -2.58704 | 8.80873 | 36929 ft | 462 kts | 142° |
| 2026-04-29 05:47 | -2.63970 | 8.84597 | 36930 ft | 462 kts | 142° |
| 2026-04-29 05:48 | -2.69216 | 8.88309 | 36930 ft | 462 kts | 142° |
| 2026-04-29 05:48 | -2.74483 | 8.92037 | 36930 ft | 463 kts | 142° |
| 2026-04-29 05:49 | -2.79724 | 8.95747 | 36931 ft | 464 kts | 141° |
| 2026-04-29 05:49 | -2.85026 | 8.99486 | 36930 ft | 464 kts | 142° |
| 2026-04-29 05:50 | -2.90323 | 9.03224 | 36925 ft | 465 kts | 142° |
| 2026-04-29 05:50 | -2.95590 | 9.06946 | 36931 ft | 465 kts | 142° |
| 2026-04-29 05:51 | -3.00873 | 9.10682 | 36931 ft | 464 kts | 142° |
| 2026-04-29 05:51 | -3.06172 | 9.14432 | 36929 ft | 464 kts | 142° |
| 2026-04-29 05:52 | -3.11424 | 9.18150 | 36929 ft | 464 kts | 142° |
| 2026-04-29 05:52 | -3.16708 | 9.21892 | 36930 ft | 464 kts | 142° |
| 2026-04-29 05:53 | -3.21981 | 9.25625 | 36931 ft | 464 kts | 142° |
| 2026-04-29 05:53 | -3.27249 | 9.29360 | 36932 ft | 463 kts | 142° |
| 2026-04-29 05:54 | -3.32504 | 9.33087 | 36931 ft | 463 kts | 142° |
| 2026-04-29 05:54 | -3.37794 | 9.36831 | 36930 ft | 463 kts | 142° |
| 2026-04-29 05:55 | -3.43038 | 9.40531 | 36930 ft | 463 kts | 142° |
| 2026-04-29 05:55 | -3.48318 | 9.44262 | 36928 ft | 463 kts | 142° |
| 2026-04-29 05:56 | -3.53588 | 9.47988 | 36929 ft | 464 kts | 142° |
| 2026-04-29 05:56 | -3.58843 | 9.51713 | 36930 ft | 463 kts | 142° |
| 2026-04-29 05:57 | -3.64061 | 9.55408 | 36930 ft | 463 kts | 142° |
| 2026-04-29 05:57 | -3.69305 | 9.59129 | 36931 ft | 463 kts | 142° |
| 2026-04-29 05:58 | -3.74585 | 9.62877 | 36931 ft | 463 kts | 142° |
| 2026-04-29 05:58 | -3.79840 | 9.66610 | 36930 ft | 463 kts | 142° |
| 2026-04-29 05:59 | -3.85096 | 9.70335 | 36929 ft | 464 kts | 142° |
| 2026-04-29 05:59 | -3.90402 | 9.74086 | 36928 ft | 465 kts | 142° |
| 2026-04-29 06:00 | -3.95670 | 9.77815 | 36932 ft | 466 kts | 142° |
| 2026-04-29 06:00 | -4.00974 | 9.81575 | 36937 ft | 465 kts | 142° |
| 2026-04-29 06:01 | -4.06277 | 9.85340 | 36947 ft | 466 kts | 142° |
| 2026-04-29 06:01 | -4.11555 | 9.89091 | 36946 ft | 465 kts | 142° |
| 2026-04-29 06:02 | -4.16845 | 9.92857 | 36950 ft | 467 kts | 142° |
| 2026-04-29 06:02 | -4.22136 | 9.96618 | 36948 ft | 467 kts | 142° |
| 2026-04-29 06:03 | -4.27461 | 10.00392 | 36941 ft | 468 kts | 142° |
| 2026-04-29 06:03 | -4.32777 | 10.04155 | 36944 ft | 468 kts | 142° |
| 2026-04-29 06:04 | -4.38103 | 10.07934 | 36952 ft | 468 kts | 142° |
| 2026-04-29 06:04 | -4.43412 | 10.11708 | 36950 ft | 469 kts | 142° |
| 2026-04-29 06:05 | -4.48758 | 10.15507 | 36951 ft | 469 kts | 142° |
| 2026-04-29 06:05 | -4.54063 | 10.19279 | 36952 ft | 470 kts | 142° |
| 2026-04-29 06:06 | -4.59429 | 10.23098 | 36953 ft | 470 kts | 142° |
| 2026-04-29 06:06 | -4.64747 | 10.26883 | 36952 ft | 471 kts | 141° |
| 2026-04-29 06:07 | -4.70102 | 10.30682 | 36951 ft | 472 kts | 142° |
| 2026-04-29 06:07 | -4.75488 | 10.34509 | 36940 ft | 472 kts | 141° |
| 2026-04-29 06:08 | -4.80824 | 10.38307 | 36941 ft | 473 kts | 141° |
| 2026-04-29 06:08 | -4.86203 | 10.42139 | 36939 ft | 473 kts | 141° |
| 2026-04-29 06:09 | -4.91618 | 10.45978 | 36937 ft | 475 kts | 141° |
| 2026-04-29 06:09 | -4.97010 | 10.49807 | 36939 ft | 476 kts | 141° |
| 2026-04-29 06:10 | -5.02412 | 10.53651 | 36938 ft | 475 kts | 141° |
| 2026-04-29 06:10 | -5.07805 | 10.57494 | 36940 ft | 476 kts | 141° |
| 2026-04-29 06:11 | -5.13187 | 10.61329 | 36939 ft | 477 kts | 141° |
| 2026-04-29 06:11 | -5.18607 | 10.65193 | 36941 ft | 478 kts | 141° |
| 2026-04-29 06:12 | -5.24048 | 10.69077 | 36941 ft | 478 kts | 141° |
| 2026-04-29 06:12 | -5.29456 | 10.72932 | 36939 ft | 478 kts | 141° |
| 2026-04-29 06:13 | -5.34928 | 10.76780 | 36936 ft | 477 kts | 141° |
| 2026-04-29 06:13 | -5.40396 | 10.80606 | 36943 ft | 478 kts | 141° |
| 2026-04-29 06:14 | -5.45790 | 10.84391 | 36940 ft | 474 kts | 141° |
| 2026-04-29 06:14 | -5.51220 | 10.88207 | 36938 ft | 474 kts | 141° |
| 2026-04-29 06:15 | -5.56648 | 10.92021 | 36940 ft | 474 kts | 141° |
| 2026-04-29 06:15 | -5.62029 | 10.95804 | 36937 ft | 474 kts | 141° |
| 2026-04-29 06:16 | -5.67436 | 10.99610 | 36935 ft | 475 kts | 141° |
| 2026-04-29 06:16 | -5.72891 | 11.03448 | 36936 ft | 475 kts | 141° |
| 2026-04-29 06:17 | -5.78349 | 11.07292 | 36936 ft | 476 kts | 142° |
| 2026-04-29 06:17 | -5.83757 | 11.11097 | 36932 ft | 476 kts | 142° |
| 2026-04-29 06:18 | -5.89204 | 11.14930 | 36931 ft | 476 kts | 142° |
| 2026-04-29 06:18 | -5.94608 | 11.18736 | 36930 ft | 476 kts | 142° |
| 2026-04-29 06:19 | -6.00068 | 11.22582 | 36933 ft | 477 kts | 142° |
| 2026-04-29 06:19 | -6.05497 | 11.26406 | 36930 ft | 476 kts | 142° |
| 2026-04-29 06:20 | -6.10927 | 11.30234 | 36927 ft | 477 kts | 142° |
| 2026-04-29 06:20 | -6.16366 | 11.34069 | 36928 ft | 477 kts | 142° |
| 2026-04-29 06:21 | -6.21806 | 11.37904 | 36929 ft | 478 kts | 142° |
| 2026-04-29 06:21 | -6.27244 | 11.41743 | 36928 ft | 478 kts | 142° |
| 2026-04-29 06:22 | -6.32709 | 11.45600 | 36930 ft | 479 kts | 142° |
| 2026-04-29 06:22 | -6.38179 | 11.49458 | 36929 ft | 480 kts | 142° |
| 2026-04-29 06:23 | -6.43641 | 11.53316 | 36931 ft | 480 kts | 142° |
| 2026-04-29 06:23 | -6.49097 | 11.57166 | 36930 ft | 480 kts | 142° |
| 2026-04-29 06:24 | -6.54568 | 11.61033 | 36931 ft | 482 kts | 142° |
| 2026-04-29 06:24 | -6.60047 | 11.64903 | 36931 ft | 480 kts | 142° |
| 2026-04-29 06:25 | -6.65525 | 11.68774 | 36932 ft | 480 kts | 142° |
| 2026-04-29 06:25 | -6.71017 | 11.72656 | 36931 ft | 482 kts | 142° |
| 2026-04-29 06:26 | -6.76509 | 11.76541 | 36931 ft | 483 kts | 142° |
| 2026-04-29 06:26 | -6.82007 | 11.80431 | 36932 ft | 483 kts | 142° |
| 2026-04-29 06:27 | -6.87494 | 11.84314 | 36932 ft | 483 kts | 142° |
| 2026-04-29 06:27 | -6.92990 | 11.88204 | 36935 ft | 483 kts | 142° |
| 2026-04-29 06:28 | -6.98511 | 11.92114 | 36934 ft | 483 kts | 142° |
| 2026-04-29 06:28 | -7.04024 | 11.96019 | 36945 ft | 484 kts | 142° |
| 2026-04-29 06:29 | -7.09527 | 11.99920 | 36953 ft | 485 kts | 142° |
| 2026-04-29 06:29 | -7.15066 | 12.03852 | 36951 ft | 484 kts | 142° |
| 2026-04-29 06:30 | -7.23305 | 12.09691 | 36945 ft | 483 kts | 143° |
| 2026-04-29 06:31 | -7.28827 | 12.13598 | 36941 ft | 482 kts | 142° |
| 2026-04-29 06:31 | -7.34313 | 12.17489 | 36936 ft | 482 kts | 142° |
| 2026-04-29 06:32 | -7.39779 | 12.21370 | 36834 ft | 481 kts | 142° |
| 2026-04-29 06:32 | -7.42549 | 12.23339 | 36076 ft | 486 kts | 142° |
| 2026-04-29 06:32 | -7.45321 | 12.25309 | 35062 ft | 491 kts | 142° |
| 2026-04-29 06:32 | -7.48094 | 12.27279 | 34250 ft | 493 kts | 142° |
| 2026-04-29 06:33 | -7.50905 | 12.29275 | 33509 ft | 492 kts | 142° |
| 2026-04-29 06:33 | -7.53714 | 12.31274 | 32753 ft | 491 kts | 142° |
| 2026-04-29 06:33 | -7.56476 | 12.33237 | 32053 ft | 491 kts | 142° |
| 2026-04-29 06:33 | -7.59288 | 12.35239 | 31328 ft | 492 kts | 143° |
| 2026-04-29 06:34 | -7.62057 | 12.37209 | 30639 ft | 491 kts | 143° |
| 2026-04-29 06:34 | -7.64859 | 12.39202 | 30132 ft | 485 kts | 143° |
| 2026-04-29 06:34 | -7.67588 | 12.41143 | 29690 ft | 478 kts | 143° |
| 2026-04-29 06:34 | -7.70280 | 12.43060 | 29224 ft | 473 kts | 143° |
| 2026-04-29 06:35 | -7.72972 | 12.44976 | 28726 ft | 468 kts | 143° |
| 2026-04-29 06:35 | -7.75634 | 12.46871 | 28237 ft | 464 kts | 143° |
| 2026-04-29 06:35 | -7.78243 | 12.48728 | 27757 ft | 460 kts | 143° |
| 2026-04-29 06:35 | -7.80865 | 12.50596 | 27248 ft | 456 kts | 143° |
| 2026-04-29 06:36 | -7.83431 | 12.52422 | 26677 ft | 452 kts | 143° |
| 2026-04-29 06:36 | -7.85976 | 12.54236 | 25990 ft | 450 kts | 143° |
| 2026-04-29 06:36 | -7.88557 | 12.56079 | 25528 ft | 447 kts | 143° |
| 2026-04-29 06:36 | -7.91078 | 12.57879 | 25308 ft | 444 kts | 143° |
| 2026-04-29 06:37 | -7.93579 | 12.59663 | 25081 ft | 441 kts | 144° |
| 2026-04-29 06:37 | -7.96087 | 12.61450 | 24598 ft | 437 kts | 144° |
| 2026-04-29 06:37 | -7.98539 | 12.63197 | 24084 ft | 433 kts | 144° |
| 2026-04-29 06:37 | -8.01012 | 12.64959 | 23534 ft | 432 kts | 143° |
| 2026-04-29 06:38 | -8.03468 | 12.66710 | 23020 ft | 429 kts | 143° |
| 2026-04-29 06:38 | -8.05905 | 12.68448 | 22563 ft | 425 kts | 143° |
| 2026-04-29 06:38 | -8.08309 | 12.70163 | 22133 ft | 421 kts | 143° |
| 2026-04-29 06:38 | -8.10685 | 12.71858 | 21717 ft | 416 kts | 143° |
| 2026-04-29 06:39 | -8.13074 | 12.73564 | 21314 ft | 412 kts | 143° |
| 2026-04-29 06:39 | -8.15413 | 12.75233 | 20947 ft | 408 kts | 143° |
| 2026-04-29 06:39 | -8.17736 | 12.76893 | 20568 ft | 404 kts | 143° |
| 2026-04-29 06:39 | -8.20025 | 12.78528 | 20189 ft | 401 kts | 143° |
| 2026-04-29 06:40 | -8.22299 | 12.80153 | 19807 ft | 398 kts | 143° |
| 2026-04-29 06:40 | -8.24532 | 12.81748 | 19431 ft | 394 kts | 143° |
| 2026-04-29 06:40 | -8.26757 | 12.83337 | 19052 ft | 391 kts | 143° |
| 2026-04-29 06:40 | -8.28970 | 12.84919 | 18672 ft | 387 kts | 143° |
| 2026-04-29 06:41 | -8.31170 | 12.86492 | 18293 ft | 384 kts | 144° |
| 2026-04-29 06:41 | -8.33342 | 12.88043 | 17917 ft | 382 kts | 144° |
| 2026-04-29 06:41 | -8.35499 | 12.89583 | 17543 ft | 379 kts | 144° |
| 2026-04-29 06:41 | -8.37649 | 12.91118 | 17169 ft | 376 kts | 144° |
| 2026-04-29 06:42 | -8.39785 | 12.92645 | 16796 ft | 373 kts | 144° |
| 2026-04-29 06:42 | -8.41894 | 12.94153 | 16424 ft | 370 kts | 144° |
| 2026-04-29 06:42 | -8.43989 | 12.95650 | 16054 ft | 367 kts | 144° |
| 2026-04-29 06:42 | -8.46061 | 12.97133 | 15686 ft | 364 kts | 144° |
| 2026-04-29 06:43 | -8.48150 | 12.98627 | 15314 ft | 362 kts | 144° |
| 2026-04-29 06:43 | -8.50191 | 13.00088 | 14947 ft | 357 kts | 144° |
| 2026-04-29 06:43 | -8.52196 | 13.01523 | 14585 ft | 355 kts | 144° |
| 2026-04-29 06:43 | -8.54215 | 13.02968 | 14222 ft | 352 kts | 144° |
| 2026-04-29 06:44 | -8.56222 | 13.04404 | 13859 ft | 349 kts | 144° |
| 2026-04-29 06:44 | -8.58201 | 13.05821 | 13502 ft | 346 kts | 144° |
| 2026-04-29 06:44 | -8.60140 | 13.07211 | 13152 ft | 344 kts | 144° |
| 2026-04-29 06:44 | -8.62093 | 13.08611 | 12802 ft | 341 kts | 144° |
| 2026-04-29 06:45 | -8.64024 | 13.09995 | 12456 ft | 339 kts | 144° |
| 2026-04-29 06:45 | -8.65958 | 13.11383 | 12109 ft | 337 kts | 144° |
| 2026-04-29 06:45 | -8.67855 | 13.12744 | 11766 ft | 335 kts | 144° |
| 2026-04-29 06:45 | -8.69765 | 13.14113 | 11421 ft | 332 kts | 144° |
| 2026-04-29 06:46 | -8.71644 | 13.15460 | 11079 ft | 331 kts | 144° |
| 2026-04-29 06:46 | -8.73509 | 13.16797 | 10738 ft | 328 kts | 144° |
| 2026-04-29 06:46 | -8.75384 | 13.18142 | 10397 ft | 326 kts | 144° |
| 2026-04-29 06:46 | -8.77228 | 13.19464 | 10164 ft | 319 kts | 144° |
| 2026-04-29 06:47 | -8.78999 | 13.20732 | 10114 ft | 307 kts | 144° |
| 2026-04-29 06:47 | -8.80735 | 13.21975 | 10068 ft | 296 kts | 144° |
| 2026-04-29 06:47 | -8.82377 | 13.23151 | 10025 ft | 285 kts | 144° |
| 2026-04-29 06:47 | -8.83871 | 13.24438 | 9932 ft | 277 kts | 127° |
| 2026-04-29 06:48 | -8.84698 | 13.26179 | 9625 ft | 278 kts | 101° |
| 2026-04-29 06:48 | -8.84881 | 13.28108 | 9341 ft | 276 kts | 93° |
| 2026-04-29 06:48 | -8.84981 | 13.30031 | 9071 ft | 275 kts | 93° |
| 2026-04-29 06:48 | -8.85084 | 13.31953 | 8805 ft | 274 kts | 93° |
| 2026-04-29 06:49 | -8.85196 | 13.33877 | 8540 ft | 273 kts | 93° |
| 2026-04-29 06:49 | -8.85313 | 13.35785 | 8276 ft | 272 kts | 93° |
| 2026-04-29 06:49 | -8.85432 | 13.37679 | 8016 ft | 270 kts | 93° |
| 2026-04-29 06:49 | -8.85555 | 13.39588 | 7754 ft | 269 kts | 93° |
| 2026-04-29 06:50 | -8.85677 | 13.41461 | 7498 ft | 268 kts | 93° |
| 2026-04-29 06:50 | -8.85798 | 13.43326 | 7296 ft | 265 kts | 93° |
| 2026-04-29 06:50 | -8.85919 | 13.45176 | 7122 ft | 262 kts | 93° |
| 2026-04-29 06:50 | -8.86040 | 13.47006 | 6951 ft | 258 kts | 93° |
| 2026-04-29 06:51 | -8.86158 | 13.48807 | 6784 ft | 254 kts | 93° |
| 2026-04-29 06:51 | -8.86274 | 13.50572 | 6614 ft | 250 kts | 93° |
| 2026-04-29 06:51 | -8.86388 | 13.52312 | 6457 ft | 247 kts | 93° |
| 2026-04-29 06:51 | -8.86500 | 13.54021 | 6304 ft | 243 kts | 93° |
| 2026-04-29 06:52 | -8.86612 | 13.55715 | 6152 ft | 240 kts | 93° |
| 2026-04-29 06:52 | -8.86711 | 13.57406 | 6002 ft | 236 kts | 94° |
| 2026-04-29 06:52 | -8.86826 | 13.59036 | 5868 ft | 232 kts | 94° |
| 2026-04-29 06:52 | -8.86935 | 13.60650 | 5708 ft | 229 kts | 94° |
| 2026-04-29 06:53 | -8.87029 | 13.62253 | 5506 ft | 229 kts | 94° |
| 2026-04-29 06:53 | -8.87132 | 13.63850 | 5305 ft | 228 kts | 95° |
| 2026-04-29 06:53 | -8.87259 | 13.65462 | 5101 ft | 228 kts | 94° |
| 2026-04-29 06:53 | -8.87371 | 13.67078 | 4909 ft | 227 kts | 92° |
| 2026-04-29 06:54 | -8.87468 | 13.68649 | 4727 ft | 226 kts | 93° |
| 2026-04-29 06:54 | -8.87567 | 13.70239 | 4529 ft | 226 kts | 93° |
| 2026-04-29 06:54 | -8.87766 | 13.71808 | 4362 ft | 223 kts | 110° |
| 2026-04-29 06:54 | -8.88557 | 13.73140 | 4194 ft | 221 kts | 134° |
| 2026-04-29 06:55 | -8.89826 | 13.73980 | 4020 ft | 219 kts | 165° |
| 2026-04-29 06:55 | -8.91320 | 13.73961 | 3853 ft | 216 kts | 201° |
| 2026-04-29 06:55 | -8.92524 | 13.73093 | 3622 ft | 216 kts | 236° |
| 2026-04-29 06:55 | -8.93155 | 13.71705 | 3369 ft | 218 kts | 253° |
| 2026-04-29 06:56 | -8.93551 | 13.70221 | 3113 ft | 219 kts | 256° |
| 2026-04-29 06:56 | -8.93904 | 13.68736 | 2980 ft | 211 kts | 257° |
| 2026-04-29 06:56 | -8.94232 | 13.67353 | 2969 ft | 197 kts | 255° |
| 2026-04-29 06:56 | -8.94667 | 13.66086 | 2954 ft | 182 kts | 245° |
| 2026-04-29 06:57 | -8.95254 | 13.64995 | 2946 ft | 172 kts | 238° |
| 2026-04-29 06:57 | -8.95926 | 13.63989 | 2967 ft | 172 kts | 234° |
| 2026-04-29 06:57 | -8.96636 | 13.63020 | 2977 ft | 172 kts | 233° |
| 2026-04-29 06:57 | -8.97362 | 13.62046 | 2947 ft | 173 kts | 234° |
| 2026-04-29 06:58 | -8.98084 | 13.61073 | 2739 ft | 172 kts | 233° |
| 2026-04-29 06:58 | -8.98802 | 13.60113 | 2517 ft | 171 kts | 233° |
| 2026-04-29 06:58 | -8.99502 | 13.59167 | 2302 ft | 165 kts | 233° |
| 2026-04-29 06:58 | -9.00190 | 13.58248 | 2080 ft | 161 kts | 232° |
| 2026-04-29 06:59 | -9.00853 | 13.57357 | 1870 ft | 156 kts | 233° |
| 2026-04-29 06:59 | -9.01503 | 13.56483 | 1667 ft | 150 kts | 233° |
| 2026-04-29 06:59 | -9.02123 | 13.55649 | 1472 ft | 144 kts | 232° |
| 2026-04-29 06:59 | -9.02726 | 13.54836 | 1299 ft | 144 kts | 232° |
| 2026-04-29 07:00 | -9.03327 | 13.54029 | 1118 ft | 144 kts | 232° |
| 2026-04-29 07:00 | -9.03937 | 13.53211 | 925 ft | 144 kts | 232° |
| 2026-04-29 07:00 | -9.04538 | 13.52400 | 733 ft | 143 kts | 232° |
| 2026-04-29 07:00 | -9.05129 | 13.51607 | 583 ft | 139 kts | 232° |
| 2026-04-29 07:01 | -9.05590 | 13.50990 | 565 ft | 66 kts | 232° |
| 2026-04-29 07:01 | -9.05847 | 13.50644 | 571 ft | 59 kts | 232° |
| 2026-04-29 07:01 | -9.06088 | 13.50321 | 572 ft | 54 kts | 233° |
| 2026-04-29 07:01 | -9.06217 | 13.50127 | 574 ft | 43 kts | 242° |